<?xml version="1.0" encoding="UTF-8" standalone="yes"?>
<gpx
 xmlns="http://www.topografix.com/GPX/1/1"
 creator="OziExplorer Version 3956f - http://www.oziexplorer.com"
 version="1.1"
 xmlns:xsi="http://www.w3.org/2001/XMLSchema-instance"
 xsi:schemaLocation="http://www.topografix.com/GPX/1/1 http://www.topografix.com/GPX/1/1/gpx.xsd">
<metadata>
 <time>2016-12-17T17:51:47Z</time>
 <bounds minlat="31.765500" minlon="34.960630" maxlat="31.813180" maxlon="35.006230"/>
</metadata>
<trk>
 <name>Цора-Эштаоль по-новому</name>
 <desc>Цора-Эштаоль по-новому</desc>
<trkseg>
<trkpt lat="31.7813585" lon="35.0023608">
<ele>263.000000</ele>
<time>2010-01-01T00:00:22.000Z</time>
</trkpt>
<trkpt lat="31.7812000" lon="35.0021900">
<ele>264.000000</ele>
<time>2010-01-01T00:00:32.000Z</time>
</trkpt>
<trkpt lat="31.7812000" lon="35.0022000">
<ele>263.000000</ele>
<time>2010-01-01T00:00:33.000Z</time>
</trkpt>
<trkpt lat="31.7811300" lon="35.0021300">
<ele>265.000000</ele>
<time>2010-01-01T00:00:36.000Z</time>
</trkpt>
<trkpt lat="31.7812800" lon="35.0018400">
<ele>266.000000</ele>
<time>2010-01-01T00:00:48.000Z</time>
</trkpt>
<trkpt lat="31.7815100" lon="35.0010700">
<ele>267.000000</ele>
<time>2010-01-01T00:01:16.000Z</time>
</trkpt>
<trkpt lat="31.7815100" lon="35.0010700">
<ele>267.000000</ele>
<time>2010-01-01T00:01:28.000Z</time>
</trkpt>
<trkpt lat="31.7814100" lon="35.0009100">
<ele>267.000000</ele>
<time>2010-01-01T00:01:35.000Z</time>
</trkpt>
<trkpt lat="31.7813600" lon="35.0008700">
<ele>268.000000</ele>
<time>2010-01-01T00:01:38.000Z</time>
</trkpt>
<trkpt lat="31.7810700" lon="35.0007400">
<ele>272.000000</ele>
<time>2010-01-01T00:01:50.000Z</time>
</trkpt>
<trkpt lat="31.7807800" lon="35.0005900">
<ele>275.000000</ele>
<time>2010-01-01T00:02:03.000Z</time>
</trkpt>
<trkpt lat="31.7806700" lon="35.0004900">
<ele>276.000000</ele>
<time>2010-01-01T00:02:08.000Z</time>
</trkpt>
<trkpt lat="31.7806300" lon="35.0003800">
<ele>277.000000</ele>
<time>2010-01-01T00:02:12.000Z</time>
</trkpt>
<trkpt lat="31.7806100" lon="35.0001900">
<ele>277.000000</ele>
<time>2010-01-01T00:02:19.000Z</time>
</trkpt>
<trkpt lat="31.7806100" lon="34.9994400">
<ele>278.000000</ele>
<time>2010-01-01T00:02:44.000Z</time>
</trkpt>
<trkpt lat="31.7804900" lon="34.9990400">
<ele>279.000000</ele>
<time>2010-01-01T00:02:59.000Z</time>
</trkpt>
<trkpt lat="31.7804000" lon="34.9989000">
<ele>278.000000</ele>
<time>2010-01-01T00:03:05.000Z</time>
</trkpt>
<trkpt lat="31.7802900" lon="34.9988100">
<ele>277.000000</ele>
<time>2010-01-01T00:03:10.000Z</time>
</trkpt>
<trkpt lat="31.7798300" lon="34.9985100">
<ele>274.000000</ele>
<time>2010-01-01T00:03:31.000Z</time>
</trkpt>
<trkpt lat="31.7798200" lon="34.9985200">
<ele>274.000000</ele>
<time>2010-01-01T00:03:32.000Z</time>
</trkpt>
<trkpt lat="31.7798300" lon="34.9985100">
<ele>274.000000</ele>
<time>2010-01-01T00:03:32.000Z</time>
</trkpt>
<trkpt lat="31.7797700" lon="34.9984200">
<ele>275.000000</ele>
<time>2010-01-01T00:03:36.000Z</time>
</trkpt>
<trkpt lat="31.7797400" lon="34.9983000">
<ele>276.000000</ele>
<time>2010-01-01T00:03:40.000Z</time>
</trkpt>
<trkpt lat="31.7797300" lon="34.9981500">
<ele>277.000000</ele>
<time>2010-01-01T00:03:46.000Z</time>
</trkpt>
<trkpt lat="31.7797600" lon="34.9979900">
<ele>278.000000</ele>
<time>2010-01-01T00:03:51.000Z</time>
</trkpt>
<trkpt lat="31.7799100" lon="34.9976200">
<ele>279.000000</ele>
<time>2010-01-01T00:04:05.000Z</time>
</trkpt>
<trkpt lat="31.7799400" lon="34.9974800">
<ele>279.000000</ele>
<time>2010-01-01T00:04:10.000Z</time>
</trkpt>
<trkpt lat="31.7799500" lon="34.9973700">
<ele>280.000000</ele>
<time>2010-01-01T00:04:14.000Z</time>
</trkpt>
<trkpt lat="31.7799300" lon="34.9972100">
<ele>281.000000</ele>
<time>2010-01-01T00:04:19.000Z</time>
</trkpt>
<trkpt lat="31.7798800" lon="34.9970100">
<ele>283.000000</ele>
<time>2010-01-01T00:04:26.000Z</time>
</trkpt>
<trkpt lat="31.7795500" lon="34.9962900">
<ele>291.000000</ele>
<time>2010-01-01T00:04:54.000Z</time>
</trkpt>
<trkpt lat="31.7795000" lon="34.9962300">
<ele>292.000000</ele>
<time>2010-01-01T00:04:57.000Z</time>
</trkpt>
<trkpt lat="31.7789500" lon="34.9958600">
<ele>300.000000</ele>
<time>2010-01-01T00:05:22.000Z</time>
</trkpt>
<trkpt lat="31.7789100" lon="34.9957800">
<ele>301.000000</ele>
<time>2010-01-01T00:05:26.000Z</time>
</trkpt>
<trkpt lat="31.7789200" lon="34.9957100">
<ele>301.000000</ele>
<time>2010-01-01T00:05:28.000Z</time>
</trkpt>
<trkpt lat="31.7790000" lon="34.9954600">
<ele>302.000000</ele>
<time>2010-01-01T00:05:37.000Z</time>
</trkpt>
<trkpt lat="31.7790900" lon="34.9953400">
<ele>302.000000</ele>
<time>2010-01-01T00:05:42.000Z</time>
</trkpt>
<trkpt lat="31.7791600" lon="34.9952900">
<ele>301.000000</ele>
<time>2010-01-01T00:05:46.000Z</time>
</trkpt>
<trkpt lat="31.7792200" lon="34.9952700">
<ele>301.000000</ele>
<time>2010-01-01T00:05:48.000Z</time>
</trkpt>
<trkpt lat="31.7796700" lon="34.9952400">
<ele>298.000000</ele>
<time>2010-01-01T00:06:06.000Z</time>
</trkpt>
<trkpt lat="31.7798200" lon="34.9952300">
<ele>298.000000</ele>
<time>2010-01-01T00:06:12.000Z</time>
</trkpt>
<trkpt lat="31.7800000" lon="34.9952700">
<ele>297.000000</ele>
<time>2010-01-01T00:06:20.000Z</time>
</trkpt>
<trkpt lat="31.7806600" lon="34.9956700">
<ele>291.000000</ele>
<time>2010-01-01T00:06:49.000Z</time>
</trkpt>
<trkpt lat="31.7811700" lon="34.9958500">
<ele>290.000000</ele>
<time>2010-01-01T00:07:11.000Z</time>
</trkpt>
<trkpt lat="31.7814100" lon="34.9959800">
<ele>290.000000</ele>
<time>2010-01-01T00:07:21.000Z</time>
</trkpt>
<trkpt lat="31.7818200" lon="34.9960800">
<ele>292.000000</ele>
<time>2010-01-01T00:07:38.000Z</time>
</trkpt>
<trkpt lat="31.7823400" lon="34.9962900">
<ele>295.000000</ele>
<time>2010-01-01T00:08:00.000Z</time>
</trkpt>
<trkpt lat="31.7826800" lon="34.9964700">
<ele>297.000000</ele>
<time>2010-01-01T00:08:15.000Z</time>
</trkpt>
<trkpt lat="31.7828200" lon="34.9965100">
<ele>298.000000</ele>
<time>2010-01-01T00:08:21.000Z</time>
</trkpt>
<trkpt lat="31.7828300" lon="34.9965100">
<ele>298.000000</ele>
<time>2010-01-01T00:08:21.000Z</time>
</trkpt>
<trkpt lat="31.7832500" lon="34.9966400">
<ele>298.000000</ele>
<time>2010-01-01T00:08:39.000Z</time>
</trkpt>
<trkpt lat="31.7834400" lon="34.9967200">
<ele>298.000000</ele>
<time>2010-01-01T00:08:47.000Z</time>
</trkpt>
<trkpt lat="31.7837300" lon="34.9970000">
<ele>299.000000</ele>
<time>2010-01-01T00:09:02.000Z</time>
</trkpt>
<trkpt lat="31.7838200" lon="34.9971200">
<ele>299.000000</ele>
<time>2010-01-01T00:09:07.000Z</time>
</trkpt>
<trkpt lat="31.7838800" lon="34.9972300">
<ele>299.000000</ele>
<time>2010-01-01T00:09:11.000Z</time>
</trkpt>
<trkpt lat="31.7839200" lon="34.9973700">
<ele>299.000000</ele>
<time>2010-01-01T00:09:17.000Z</time>
</trkpt>
<trkpt lat="31.7839300" lon="34.9974500">
<ele>299.000000</ele>
<time>2010-01-01T00:09:19.000Z</time>
</trkpt>
<trkpt lat="31.7839100" lon="34.9975300">
<ele>298.000000</ele>
<time>2010-01-01T00:09:22.000Z</time>
</trkpt>
<trkpt lat="31.7838885" lon="34.9975275">
<ele>298.000000</ele>
<time>2010-01-01T00:09:23.000Z</time>
</trkpt>
<trkpt lat="31.7836696" lon="34.9982571">
<ele>292.000000</ele>
<time>2010-01-01T00:09:49.000Z</time>
</trkpt>
<trkpt lat="31.7839068" lon="34.9986004">
<ele>294.000000</ele>
<time>2010-01-01T00:10:04.000Z</time>
</trkpt>
<trkpt lat="31.7845000" lon="34.9991600">
<ele>295.000000</ele>
<time>2010-01-01T00:10:35.000Z</time>
</trkpt>
<trkpt lat="31.7852000" lon="34.9991800">
<ele>300.000000</ele>
<time>2010-01-01T00:11:03.000Z</time>
</trkpt>
<trkpt lat="31.7853500" lon="34.9991600">
<ele>301.000000</ele>
<time>2010-01-01T00:11:09.000Z</time>
</trkpt>
<trkpt lat="31.7854500" lon="34.9991000">
<ele>302.000000</ele>
<time>2010-01-01T00:11:13.000Z</time>
</trkpt>
<trkpt lat="31.7855700" lon="34.9990000">
<ele>304.000000</ele>
<time>2010-01-01T00:11:19.000Z</time>
</trkpt>
<trkpt lat="31.7857200" lon="34.9988200">
<ele>306.000000</ele>
<time>2010-01-01T00:11:28.000Z</time>
</trkpt>
<trkpt lat="31.7858100" lon="34.9987400">
<ele>308.000000</ele>
<time>2010-01-01T00:11:32.000Z</time>
</trkpt>
<trkpt lat="31.7861700" lon="34.9985700">
<ele>312.000000</ele>
<time>2010-01-01T00:11:48.000Z</time>
</trkpt>
<trkpt lat="31.7863700" lon="34.9984100">
<ele>312.999969</ele>
<time>2010-01-01T00:11:58.000Z</time>
</trkpt>
<trkpt lat="31.7863500" lon="34.9984000">
<ele>314.000000</ele>
<time>2010-01-01T00:11:58.000Z</time>
</trkpt>
<trkpt lat="31.7863500" lon="34.9984100">
<ele>314.000000</ele>
<time>2010-01-01T00:11:59.000Z</time>
</trkpt>
<trkpt lat="31.7863700" lon="34.9984100">
<ele>312.999969</ele>
<time>2010-01-01T00:12:00.000Z</time>
</trkpt>
<trkpt lat="31.7868400" lon="34.9980600">
<ele>316.000000</ele>
<time>2010-01-01T00:12:22.000Z</time>
</trkpt>
<trkpt lat="31.7870800" lon="34.9973800">
<ele>321.000031</ele>
<time>2010-01-01T00:12:47.000Z</time>
</trkpt>
<trkpt lat="31.7870600" lon="34.9970100">
<ele>323.999969</ele>
<time>2010-01-01T00:12:59.000Z</time>
</trkpt>
<trkpt lat="31.7869700" lon="34.9963800">
<ele>326.999969</ele>
<time>2010-01-01T00:13:21.000Z</time>
</trkpt>
<trkpt lat="31.7869000" lon="34.9961900">
<ele>326.999969</ele>
<time>2010-01-01T00:13:28.000Z</time>
</trkpt>
<trkpt lat="31.7869200" lon="34.9962000">
<ele>326.999969</ele>
<time>2010-01-01T00:13:29.000Z</time>
</trkpt>
<trkpt lat="31.7869200" lon="34.9962100">
<ele>326.999969</ele>
<time>2010-01-01T00:13:29.000Z</time>
</trkpt>
<trkpt lat="31.7868400" lon="34.9961600">
<ele>328.000000</ele>
<time>2010-01-01T00:13:33.000Z</time>
</trkpt>
<trkpt lat="31.7867600" lon="34.9961700">
<ele>328.000000</ele>
<time>2010-01-01T00:13:36.000Z</time>
</trkpt>
<trkpt lat="31.7864800" lon="34.9962900">
<ele>330.000000</ele>
<time>2010-01-01T00:13:48.000Z</time>
</trkpt>
<trkpt lat="31.7861200" lon="34.9963300">
<ele>336.000000</ele>
<time>2010-01-01T00:14:03.000Z</time>
</trkpt>
<trkpt lat="31.7861300" lon="34.9963300">
<ele>335.000031</ele>
<time>2010-01-01T00:14:03.000Z</time>
</trkpt>
<trkpt lat="31.7861600" lon="34.9963400">
<ele>335.000031</ele>
<time>2010-01-01T00:14:04.000Z</time>
</trkpt>
<trkpt lat="31.7860700" lon="34.9962600">
<ele>336.000000</ele>
<time>2010-01-01T00:14:09.000Z</time>
</trkpt>
<trkpt lat="31.7860900" lon="34.9961300">
<ele>337.000000</ele>
<time>2010-01-01T00:14:13.000Z</time>
</trkpt>
<trkpt lat="31.7861300" lon="34.9960200">
<ele>337.000000</ele>
<time>2010-01-01T00:14:17.000Z</time>
</trkpt>
<trkpt lat="31.7862900" lon="34.9957800">
<ele>336.000000</ele>
<time>2010-01-01T00:14:28.000Z</time>
</trkpt>
<trkpt lat="31.7865000" lon="34.9955100">
<ele>336.000000</ele>
<time>2010-01-01T00:14:40.000Z</time>
</trkpt>
<trkpt lat="31.7867300" lon="34.9952700">
<ele>335.000031</ele>
<time>2010-01-01T00:14:53.000Z</time>
</trkpt>
<trkpt lat="31.7868700" lon="34.9951600">
<ele>335.000031</ele>
<time>2010-01-01T00:14:59.000Z</time>
</trkpt>
<trkpt lat="31.7869600" lon="34.9951200">
<ele>334.000000</ele>
<time>2010-01-01T00:15:03.000Z</time>
</trkpt>
<trkpt lat="31.7870500" lon="34.9950500">
<ele>333.000000</ele>
<time>2010-01-01T00:15:08.000Z</time>
</trkpt>
<trkpt lat="31.7871300" lon="34.9949300">
<ele>333.000000</ele>
<time>2010-01-01T00:15:13.000Z</time>
</trkpt>
<trkpt lat="31.7871600" lon="34.9948100">
<ele>332.000000</ele>
<time>2010-01-01T00:15:17.000Z</time>
</trkpt>
<trkpt lat="31.7871900" lon="34.9942400">
<ele>332.000000</ele>
<time>2010-01-01T00:15:36.000Z</time>
</trkpt>
<trkpt lat="31.7872500" lon="34.9938500">
<ele>328.000000</ele>
<time>2010-01-01T00:15:50.000Z</time>
</trkpt>
<trkpt lat="31.7873100" lon="34.9931700">
<ele>328.000000</ele>
<time>2010-01-01T00:16:16.000Z</time>
</trkpt>
<trkpt lat="31.7873500" lon="34.9930700">
<ele>328.000000</ele>
<time>2010-01-01T00:16:19.000Z</time>
</trkpt>
<trkpt lat="31.7873700" lon="34.9929600">
<ele>328.000000</ele>
<time>2010-01-01T00:16:23.000Z</time>
</trkpt>
<trkpt lat="31.7873700" lon="34.9928300">
<ele>329.000000</ele>
<time>2010-01-01T00:16:28.000Z</time>
</trkpt>
<trkpt lat="31.7873400" lon="34.9926600">
<ele>331.000000</ele>
<time>2010-01-01T00:16:34.000Z</time>
</trkpt>
<trkpt lat="31.7872300" lon="34.9923800">
<ele>334.000000</ele>
<time>2010-01-01T00:16:44.000Z</time>
</trkpt>
<trkpt lat="31.7871800" lon="34.9921900">
<ele>337.000000</ele>
<time>2010-01-01T00:16:51.000Z</time>
</trkpt>
<trkpt lat="31.7872100" lon="34.9919200">
<ele>337.999969</ele>
<time>2010-01-01T00:17:07.000Z</time>
</trkpt>
<trkpt lat="31.7872025" lon="34.9914657">
<ele>337.999969</ele>
<time>2010-01-01T00:17:22.000Z</time>
</trkpt>
<trkpt lat="31.7871569" lon="34.9911653">
<ele>337.999969</ele>
<time>2010-01-01T00:17:23.000Z</time>
</trkpt>
<trkpt lat="31.7872116" lon="34.9906289">
<ele>344.000000</ele>
<time>2010-01-01T00:17:36.000Z</time>
</trkpt>
<trkpt lat="31.7875764" lon="34.9900173">
<ele>346.000031</ele>
<time>2010-01-01T00:17:45.000Z</time>
</trkpt>
<trkpt lat="31.7875946" lon="34.9895774">
<ele>347.000000</ele>
<time>2010-01-01T00:17:50.000Z</time>
</trkpt>
<trkpt lat="31.7874943" lon="34.9889766">
<ele>351.999969</ele>
<time>2010-01-01T00:18:06.000Z</time>
</trkpt>
<trkpt lat="31.7874031" lon="34.9884724">
<ele>353.000000</ele>
<time>2010-01-01T00:18:12.000Z</time>
</trkpt>
<trkpt lat="31.7873666" lon="34.9880861">
<ele>353.000000</ele>
<time>2010-01-01T00:18:17.000Z</time>
</trkpt>
<trkpt lat="31.7875034" lon="34.9874638">
<ele>353.000000</ele>
<time>2010-01-01T00:18:29.000Z</time>
</trkpt>
<trkpt lat="31.7873575" lon="34.9869918">
<ele>353.000000</ele>
<time>2010-01-01T00:18:36.000Z</time>
</trkpt>
<trkpt lat="31.7870201" lon="34.9867450">
<ele>351.999969</ele>
<time>2010-01-01T00:18:39.000Z</time>
</trkpt>
<trkpt lat="31.7865732" lon="34.9865948">
<ele>354.000000</ele>
<time>2010-01-01T00:18:50.000Z</time>
</trkpt>
<trkpt lat="31.7864820" lon="34.9866914">
<ele>354.000000</ele>
<time>2010-01-01T00:18:56.000Z</time>
</trkpt>
<trkpt lat="31.7864182" lon="34.9873566">
<ele>354.000000</ele>
<time>2010-01-01T00:19:04.000Z</time>
</trkpt>
<trkpt lat="31.7864455" lon="34.9886118">
<ele>354.000000</ele>
<time>2010-01-01T00:19:08.000Z</time>
</trkpt>
<trkpt lat="31.7863726" lon="34.9891805">
<ele>353.000000</ele>
<time>2010-01-01T00:19:20.000Z</time>
</trkpt>
<trkpt lat="31.7862723" lon="34.9898671">
<ele>355.000000</ele>
<time>2010-01-01T00:19:36.000Z</time>
</trkpt>
<trkpt lat="31.7857980" lon="34.9901568">
<ele>355.000000</ele>
<time>2010-01-01T00:19:40.000Z</time>
</trkpt>
<trkpt lat="31.7855244" lon="34.9899744">
<ele>356.000000</ele>
<time>2010-01-01T00:19:47.000Z</time>
</trkpt>
<trkpt lat="31.7849955" lon="34.9903177">
<ele>356.000000</ele>
<time>2010-01-01T00:19:54.000Z</time>
</trkpt>
<trkpt lat="31.7849043" lon="34.9909078">
<ele>356.000000</ele>
<time>2010-01-01T00:19:59.000Z</time>
</trkpt>
<trkpt lat="31.7850684" lon="34.9917661">
<ele>354.000000</ele>
<time>2010-01-01T00:20:08.000Z</time>
</trkpt>
<trkpt lat="31.7848222" lon="34.9919700">
<ele>351.999969</ele>
<time>2010-01-01T00:20:15.000Z</time>
</trkpt>
<trkpt lat="31.7844848" lon="34.9920558">
<ele>351.999969</ele>
<time>2010-01-01T00:20:19.000Z</time>
</trkpt>
<trkpt lat="31.7837917" lon="34.9917017">
<ele>353.000000</ele>
<time>2010-01-01T00:20:21.000Z</time>
</trkpt>
<trkpt lat="31.7834177" lon="34.9912833">
<ele>355.000000</ele>
<time>2010-01-01T00:20:26.000Z</time>
</trkpt>
<trkpt lat="31.7830438" lon="34.9897169">
<ele>357.000000</ele>
<time>2010-01-01T00:20:39.000Z</time>
</trkpt>
<trkpt lat="31.7825970" lon="34.9897920">
<ele>355.000000</ele>
<time>2010-01-01T00:20:53.000Z</time>
</trkpt>
<trkpt lat="31.7823052" lon="34.9899637">
<ele>351.999969</ele>
<time>2010-01-01T00:21:08.000Z</time>
</trkpt>
<trkpt lat="31.7820681" lon="34.9898993">
<ele>346.000031</ele>
<time>2010-01-01T00:21:19.000Z</time>
</trkpt>
<trkpt lat="31.7820316" lon="34.9914335">
<ele>344.000000</ele>
<time>2010-01-01T00:21:32.000Z</time>
</trkpt>
<trkpt lat="31.7816212" lon="34.9920772">
<ele>344.000000</ele>
<time>2010-01-01T00:21:32.000Z</time>
</trkpt>
<trkpt lat="31.7810103" lon="34.9917876">
<ele>347.000000</ele>
<time>2010-01-01T00:22:05.000Z</time>
</trkpt>
<trkpt lat="31.7805817" lon="34.9916803">
<ele>347.000000</ele>
<time>2010-01-01T00:22:14.000Z</time>
</trkpt>
<trkpt lat="31.7801530" lon="34.9914657">
<ele>347.000000</ele>
<time>2010-01-01T00:22:24.000Z</time>
</trkpt>
<trkpt lat="31.7796058" lon="34.9911867">
<ele>349.000031</ele>
<time>2010-01-01T00:22:37.000Z</time>
</trkpt>
<trkpt lat="31.7790951" lon="34.9906825">
<ele>348.000000</ele>
<time>2010-01-01T00:22:59.000Z</time>
</trkpt>
<trkpt lat="31.7787576" lon="34.9905645">
<ele>346.000031</ele>
<time>2010-01-01T00:23:34.000Z</time>
</trkpt>
<trkpt lat="31.7785934" lon="34.9903499">
<ele>346.000031</ele>
<time>2010-01-01T00:23:49.000Z</time>
</trkpt>
<trkpt lat="31.7785022" lon="34.9899315">
<ele>346.000031</ele>
<time>2010-01-01T00:24:01.000Z</time>
</trkpt>
<trkpt lat="31.7785114" lon="34.9895023">
<ele>342.000000</ele>
<time>2010-01-01T00:24:34.000Z</time>
</trkpt>
<trkpt lat="31.7785752" lon="34.9892448">
<ele>341.000000</ele>
<time>2010-01-01T00:24:48.000Z</time>
</trkpt>
<trkpt lat="31.7786482" lon="34.9889873">
<ele>341.000000</ele>
<time>2010-01-01T00:24:51.000Z</time>
</trkpt>
<trkpt lat="31.7787759" lon="34.9887513">
<ele>341.000000</ele>
<time>2010-01-01T00:24:57.000Z</time>
</trkpt>
<trkpt lat="31.7788032" lon="34.9885367">
<ele>342.000000</ele>
<time>2010-01-01T00:25:06.000Z</time>
</trkpt>
<trkpt lat="31.7786938" lon="34.9883114">
<ele>344.000000</ele>
<time>2010-01-01T00:25:11.000Z</time>
</trkpt>
<trkpt lat="31.7785022" lon="34.9881183">
<ele>350.000000</ele>
<time>2010-01-01T00:25:23.000Z</time>
</trkpt>
<trkpt lat="31.7782195" lon="34.9880217">
<ele>356.000000</ele>
<time>2010-01-01T00:25:36.000Z</time>
</trkpt>
<trkpt lat="31.7779733" lon="34.9879359">
<ele>357.000000</ele>
<time>2010-01-01T00:25:39.000Z</time>
</trkpt>
<trkpt lat="31.7776996" lon="34.9877535">
<ele>362.999969</ele>
<time>2010-01-01T00:25:55.000Z</time>
</trkpt>
<trkpt lat="31.7775172" lon="34.9876999">
<ele>364.000000</ele>
<time>2010-01-01T00:26:10.000Z</time>
</trkpt>
<trkpt lat="31.7772892" lon="34.9873780">
<ele>359.000000</ele>
<time>2010-01-01T00:26:50.000Z</time>
</trkpt>
<trkpt lat="31.7771200" lon="34.9872400">
<ele>337.000000</ele>
<time>2010-01-01T00:27:54.000Z</time>
</trkpt>
<trkpt lat="31.7769200" lon="34.9869400">
<ele>337.999969</ele>
<time>2010-01-01T00:28:07.000Z</time>
</trkpt>
<trkpt lat="31.7767200" lon="34.9865900">
<ele>340.000000</ele>
<time>2010-01-01T00:28:22.000Z</time>
</trkpt>
<trkpt lat="31.7766900" lon="34.9864000">
<ele>341.000000</ele>
<time>2010-01-01T00:28:28.000Z</time>
</trkpt>
<trkpt lat="31.7766400" lon="34.9862300">
<ele>343.000000</ele>
<time>2010-01-01T00:28:34.000Z</time>
</trkpt>
<trkpt lat="31.7766400" lon="34.9862400">
<ele>343.000000</ele>
<time>2010-01-01T00:28:35.000Z</time>
</trkpt>
<trkpt lat="31.7765100" lon="34.9862400">
<ele>346.000031</ele>
<time>2010-01-01T00:28:40.000Z</time>
</trkpt>
<trkpt lat="31.7764500" lon="34.9862600">
<ele>348.000000</ele>
<time>2010-01-01T00:28:42.000Z</time>
</trkpt>
<trkpt lat="31.7763700" lon="34.9863200">
<ele>349.000031</ele>
<time>2010-01-01T00:28:46.000Z</time>
</trkpt>
<trkpt lat="31.7763200" lon="34.9863900">
<ele>350.000000</ele>
<time>2010-01-01T00:28:49.000Z</time>
</trkpt>
<trkpt lat="31.7761000" lon="34.9867400">
<ele>353.000000</ele>
<time>2010-01-01T00:29:04.000Z</time>
</trkpt>
<trkpt lat="31.7759900" lon="34.9868600">
<ele>354.000000</ele>
<time>2010-01-01T00:29:10.000Z</time>
</trkpt>
<trkpt lat="31.7756300" lon="34.9871700">
<ele>356.000000</ele>
<time>2010-01-01T00:29:28.000Z</time>
</trkpt>
<trkpt lat="31.7753300" lon="34.9873500">
<ele>353.000000</ele>
<time>2010-01-01T00:29:41.000Z</time>
</trkpt>
<trkpt lat="31.7753300" lon="34.9873500">
<ele>353.000000</ele>
<time>2010-01-01T00:29:46.000Z</time>
</trkpt>
<trkpt lat="31.7750300" lon="34.9875200">
<ele>349.000031</ele>
<time>2010-01-01T00:30:00.000Z</time>
</trkpt>
<trkpt lat="31.7749400" lon="34.9875500">
<ele>348.000000</ele>
<time>2010-01-01T00:30:03.000Z</time>
</trkpt>
<trkpt lat="31.7748600" lon="34.9876100">
<ele>346.000031</ele>
<time>2010-01-01T00:30:07.000Z</time>
</trkpt>
<trkpt lat="31.7748100" lon="34.9877200">
<ele>344.000000</ele>
<time>2010-01-01T00:30:11.000Z</time>
</trkpt>
<trkpt lat="31.7746400" lon="34.9875300">
<ele>345.000000</ele>
<time>2010-01-01T00:30:21.000Z</time>
</trkpt>
<trkpt lat="31.7745400" lon="34.9874800">
<ele>344.000000</ele>
<time>2010-01-01T00:30:25.000Z</time>
</trkpt>
<trkpt lat="31.7741600" lon="34.9873900">
<ele>340.000000</ele>
<time>2010-01-01T00:30:41.000Z</time>
</trkpt>
<trkpt lat="31.7740600" lon="34.9873900">
<ele>339.000000</ele>
<time>2010-01-01T00:30:45.000Z</time>
</trkpt>
<trkpt lat="31.7739700" lon="34.9873500">
<ele>339.000000</ele>
<time>2010-01-01T00:30:49.000Z</time>
</trkpt>
<trkpt lat="31.7738900" lon="34.9873800">
<ele>337.000000</ele>
<time>2010-01-01T00:30:52.000Z</time>
</trkpt>
<trkpt lat="31.7737700" lon="34.9874700">
<ele>334.000000</ele>
<time>2010-01-01T00:30:58.000Z</time>
</trkpt>
<trkpt lat="31.7737200" lon="34.9875000">
<ele>333.000000</ele>
<time>2010-01-01T00:31:00.000Z</time>
</trkpt>
<trkpt lat="31.7736200" lon="34.9875200">
<ele>332.000000</ele>
<time>2010-01-01T00:31:04.000Z</time>
</trkpt>
<trkpt lat="31.7735200" lon="34.9875000">
<ele>333.000000</ele>
<time>2010-01-01T00:31:08.000Z</time>
</trkpt>
<trkpt lat="31.7732000" lon="34.9873400">
<ele>334.000000</ele>
<time>2010-01-01T00:31:22.000Z</time>
</trkpt>
<trkpt lat="31.7731000" lon="34.9873100">
<ele>334.000000</ele>
<time>2010-01-01T00:31:26.000Z</time>
</trkpt>
<trkpt lat="31.7729900" lon="34.9873000">
<ele>334.000000</ele>
<time>2010-01-01T00:31:30.000Z</time>
</trkpt>
<trkpt lat="31.7726700" lon="34.9873200">
<ele>333.000000</ele>
<time>2010-01-01T00:31:43.000Z</time>
</trkpt>
<trkpt lat="31.7724700" lon="34.9872800">
<ele>333.000000</ele>
<time>2010-01-01T00:31:51.000Z</time>
</trkpt>
<trkpt lat="31.7723500" lon="34.9872300">
<ele>333.000000</ele>
<time>2010-01-01T00:31:57.000Z</time>
</trkpt>
<trkpt lat="31.7720700" lon="34.9869900">
<ele>332.000000</ele>
<time>2010-01-01T00:32:10.000Z</time>
</trkpt>
<trkpt lat="31.7719100" lon="34.9868000">
<ele>333.000000</ele>
<time>2010-01-01T00:32:19.000Z</time>
</trkpt>
<trkpt lat="31.7717300" lon="34.9865000">
<ele>334.000000</ele>
<time>2010-01-01T00:32:32.000Z</time>
</trkpt>
<trkpt lat="31.7715200" lon="34.9860500">
<ele>335.000031</ele>
<time>2010-01-01T00:32:49.000Z</time>
</trkpt>
<trkpt lat="31.7714400" lon="34.9859300">
<ele>334.000000</ele>
<time>2010-01-01T00:32:55.000Z</time>
</trkpt>
<trkpt lat="31.7710900" lon="34.9854700">
<ele>325.000000</ele>
<time>2010-01-01T00:33:16.000Z</time>
</trkpt>
<trkpt lat="31.7710300" lon="34.9852400">
<ele>322.000000</ele>
<time>2010-01-01T00:33:24.000Z</time>
</trkpt>
<trkpt lat="31.7710500" lon="34.9849900">
<ele>319.000000</ele>
<time>2010-01-01T00:33:32.000Z</time>
</trkpt>
<trkpt lat="31.7711200" lon="34.9846400">
<ele>320.000000</ele>
<time>2010-01-01T00:33:45.000Z</time>
</trkpt>
<trkpt lat="31.7712600" lon="34.9842600">
<ele>321.000031</ele>
<time>2010-01-01T00:33:59.000Z</time>
</trkpt>
<trkpt lat="31.7713200" lon="34.9840800">
<ele>321.000031</ele>
<time>2010-01-01T00:34:05.000Z</time>
</trkpt>
<trkpt lat="31.7713600" lon="34.9837700">
<ele>323.999969</ele>
<time>2010-01-01T00:34:16.000Z</time>
</trkpt>
<trkpt lat="31.7713400" lon="34.9836200">
<ele>325.000000</ele>
<time>2010-01-01T00:34:21.000Z</time>
</trkpt>
<trkpt lat="31.7712900" lon="34.9834800">
<ele>326.999969</ele>
<time>2010-01-01T00:34:26.000Z</time>
</trkpt>
<trkpt lat="31.7712300" lon="34.9833500">
<ele>329.000000</ele>
<time>2010-01-01T00:34:31.000Z</time>
</trkpt>
<trkpt lat="31.7710600" lon="34.9831000">
<ele>331.000000</ele>
<time>2010-01-01T00:34:42.000Z</time>
</trkpt>
<trkpt lat="31.7709500" lon="34.9830100">
<ele>331.000000</ele>
<time>2010-01-01T00:34:48.000Z</time>
</trkpt>
<trkpt lat="31.7707300" lon="34.9829800">
<ele>328.000000</ele>
<time>2010-01-01T00:34:56.000Z</time>
</trkpt>
<trkpt lat="31.7704200" lon="34.9829000">
<ele>323.000000</ele>
<time>2010-01-01T00:35:09.000Z</time>
</trkpt>
<trkpt lat="31.7703400" lon="34.9828400">
<ele>322.000000</ele>
<time>2010-01-01T00:35:13.000Z</time>
</trkpt>
<trkpt lat="31.7702800" lon="34.9827400">
<ele>322.000000</ele>
<time>2010-01-01T00:35:17.000Z</time>
</trkpt>
<trkpt lat="31.7702600" lon="34.9826200">
<ele>323.000000</ele>
<time>2010-01-01T00:35:21.000Z</time>
</trkpt>
<trkpt lat="31.7702600" lon="34.9820700">
<ele>325.000000</ele>
<time>2010-01-01T00:35:40.000Z</time>
</trkpt>
<trkpt lat="31.7702900" lon="34.9816900">
<ele>323.000000</ele>
<time>2010-01-01T00:35:53.000Z</time>
</trkpt>
<trkpt lat="31.7703100" lon="34.9815600">
<ele>322.000000</ele>
<time>2010-01-01T00:35:57.000Z</time>
</trkpt>
<trkpt lat="31.7704400" lon="34.9811800">
<ele>319.000000</ele>
<time>2010-01-01T00:36:11.000Z</time>
</trkpt>
<trkpt lat="31.7705100" lon="34.9810700">
<ele>318.000000</ele>
<time>2010-01-01T00:36:16.000Z</time>
</trkpt>
<trkpt lat="31.7707600" lon="34.9805500">
<ele>318.000000</ele>
<time>2010-01-01T00:36:36.000Z</time>
</trkpt>
<trkpt lat="31.7707900" lon="34.9804400">
<ele>319.000000</ele>
<time>2010-01-01T00:36:40.000Z</time>
</trkpt>
<trkpt lat="31.7707600" lon="34.9803700">
<ele>318.000000</ele>
<time>2010-01-01T00:36:43.000Z</time>
</trkpt>
<trkpt lat="31.7707600" lon="34.9802200">
<ele>318.000000</ele>
<time>2010-01-01T00:36:48.000Z</time>
</trkpt>
<trkpt lat="31.7706900" lon="34.9801500">
<ele>317.000000</ele>
<time>2010-01-01T00:36:52.000Z</time>
</trkpt>
<trkpt lat="31.7704000" lon="34.9801100">
<ele>311.000000</ele>
<time>2010-01-01T00:37:03.000Z</time>
</trkpt>
<trkpt lat="31.7701000" lon="34.9801300">
<ele>306.000000</ele>
<time>2010-01-01T00:37:16.000Z</time>
</trkpt>
<trkpt lat="31.7698700" lon="34.9800700">
<ele>301.000000</ele>
<time>2010-01-01T00:37:25.000Z</time>
</trkpt>
<trkpt lat="31.7697000" lon="34.9799400">
<ele>299.000000</ele>
<time>2010-01-01T00:37:33.000Z</time>
</trkpt>
<trkpt lat="31.7696200" lon="34.9798500">
<ele>298.000000</ele>
<time>2010-01-01T00:37:38.000Z</time>
</trkpt>
<trkpt lat="31.7695800" lon="34.9797500">
<ele>298.000000</ele>
<time>2010-01-01T00:37:41.000Z</time>
</trkpt>
<trkpt lat="31.7695000" lon="34.9794800">
<ele>301.000000</ele>
<time>2010-01-01T00:37:51.000Z</time>
</trkpt>
<trkpt lat="31.7693700" lon="34.9792700">
<ele>302.000000</ele>
<time>2010-01-01T00:38:00.000Z</time>
</trkpt>
<trkpt lat="31.7692500" lon="34.9792200">
<ele>300.000000</ele>
<time>2010-01-01T00:38:05.000Z</time>
</trkpt>
<trkpt lat="31.7690600" lon="34.9790300">
<ele>300.000000</ele>
<time>2010-01-01T00:38:15.000Z</time>
</trkpt>
<trkpt lat="31.7689200" lon="34.9788100">
<ele>300.000000</ele>
<time>2010-01-01T00:38:24.000Z</time>
</trkpt>
<trkpt lat="31.7687200" lon="34.9782000">
<ele>299.000000</ele>
<time>2010-01-01T00:38:47.000Z</time>
</trkpt>
<trkpt lat="31.7685600" lon="34.9778800">
<ele>298.000000</ele>
<time>2010-01-01T00:38:59.000Z</time>
</trkpt>
<trkpt lat="31.7684500" lon="34.9776800">
<ele>297.000000</ele>
<time>2010-01-01T00:39:07.000Z</time>
</trkpt>
<trkpt lat="31.7683600" lon="34.9774400">
<ele>295.000000</ele>
<time>2010-01-01T00:39:16.000Z</time>
</trkpt>
<trkpt lat="31.7683300" lon="34.9772800">
<ele>295.000000</ele>
<time>2010-01-01T00:39:22.000Z</time>
</trkpt>
<trkpt lat="31.7683400" lon="34.9767900">
<ele>302.000000</ele>
<time>2010-01-01T00:39:38.000Z</time>
</trkpt>
<trkpt lat="31.7683000" lon="34.9766900">
<ele>303.000000</ele>
<time>2010-01-01T00:39:42.000Z</time>
</trkpt>
<trkpt lat="31.7682300" lon="34.9766200">
<ele>303.000000</ele>
<time>2010-01-01T00:39:46.000Z</time>
</trkpt>
<trkpt lat="31.7681100" lon="34.9765600">
<ele>302.000000</ele>
<time>2010-01-01T00:39:51.000Z</time>
</trkpt>
<trkpt lat="31.7679200" lon="34.9764900">
<ele>300.000000</ele>
<time>2010-01-01T00:39:59.000Z</time>
</trkpt>
<trkpt lat="31.7675100" lon="34.9762900">
<ele>301.000000</ele>
<time>2010-01-01T00:40:17.000Z</time>
</trkpt>
<trkpt lat="31.7674500" lon="34.9762700">
<ele>301.000000</ele>
<time>2010-01-01T00:40:19.000Z</time>
</trkpt>
<trkpt lat="31.7674500" lon="34.9763200">
<ele>299.000000</ele>
<time>2010-01-01T00:40:21.000Z</time>
</trkpt>
<trkpt lat="31.7674500" lon="34.9762700">
<ele>301.000000</ele>
<time>2010-01-01T00:40:23.000Z</time>
</trkpt>
<trkpt lat="31.7672800" lon="34.9762200">
<ele>300.000000</ele>
<time>2010-01-01T00:40:30.000Z</time>
</trkpt>
<trkpt lat="31.7670800" lon="34.9760200">
<ele>302.000000</ele>
<time>2010-01-01T00:40:40.000Z</time>
</trkpt>
<trkpt lat="31.7669800" lon="34.9759700">
<ele>302.000000</ele>
<time>2010-01-01T00:40:45.000Z</time>
</trkpt>
<trkpt lat="31.7668800" lon="34.9759500">
<ele>301.000000</ele>
<time>2010-01-01T00:40:49.000Z</time>
</trkpt>
<trkpt lat="31.7666600" lon="34.9760100">
<ele>296.000000</ele>
<time>2010-01-01T00:40:58.000Z</time>
</trkpt>
<trkpt lat="31.7665500" lon="34.9759900">
<ele>294.000000</ele>
<time>2010-01-01T00:41:02.000Z</time>
</trkpt>
<trkpt lat="31.7664500" lon="34.9759300">
<ele>294.000000</ele>
<time>2010-01-01T00:41:07.000Z</time>
</trkpt>
<trkpt lat="31.7661800" lon="34.9756900">
<ele>292.000000</ele>
<time>2010-01-01T00:41:20.000Z</time>
</trkpt>
<trkpt lat="31.7660400" lon="34.9753700">
<ele>290.000000</ele>
<time>2010-01-01T00:41:32.000Z</time>
</trkpt>
<trkpt lat="31.7659700" lon="34.9751700">
<ele>288.000000</ele>
<time>2010-01-01T00:41:40.000Z</time>
</trkpt>
<trkpt lat="31.7659000" lon="34.9748500">
<ele>289.000000</ele>
<time>2010-01-01T00:41:51.000Z</time>
</trkpt>
<trkpt lat="31.7655700" lon="34.9742400">
<ele>282.000000</ele>
<time>2010-01-01T00:42:16.000Z</time>
</trkpt>
<trkpt lat="31.7655300" lon="34.9741100">
<ele>282.000000</ele>
<time>2010-01-01T00:42:20.000Z</time>
</trkpt>
<trkpt lat="31.7655300" lon="34.9734800">
<ele>286.000000</ele>
<time>2010-01-01T00:42:42.000Z</time>
</trkpt>
<trkpt lat="31.7655100" lon="34.9732200">
<ele>285.000000</ele>
<time>2010-01-01T00:42:51.000Z</time>
</trkpt>
<trkpt lat="31.7655000" lon="34.9727400">
<ele>281.000000</ele>
<time>2010-01-01T00:43:07.000Z</time>
</trkpt>
<trkpt lat="31.7655300" lon="34.9726200">
<ele>280.000000</ele>
<time>2010-01-01T00:43:11.000Z</time>
</trkpt>
<trkpt lat="31.7655900" lon="34.9725400">
<ele>281.000000</ele>
<time>2010-01-01T00:43:15.000Z</time>
</trkpt>
<trkpt lat="31.7657600" lon="34.9724200">
<ele>284.000000</ele>
<time>2010-01-01T00:43:23.000Z</time>
</trkpt>
<trkpt lat="31.7658400" lon="34.9723300">
<ele>284.000000</ele>
<time>2010-01-01T00:43:27.000Z</time>
</trkpt>
<trkpt lat="31.7659800" lon="34.9719900">
<ele>282.000000</ele>
<time>2010-01-01T00:43:40.000Z</time>
</trkpt>
<trkpt lat="31.7660100" lon="34.9718500">
<ele>283.000000</ele>
<time>2010-01-01T00:43:45.000Z</time>
</trkpt>
<trkpt lat="31.7660000" lon="34.9717400">
<ele>283.000000</ele>
<time>2010-01-01T00:43:49.000Z</time>
</trkpt>
<trkpt lat="31.7659500" lon="34.9716100">
<ele>282.000000</ele>
<time>2010-01-01T00:43:54.000Z</time>
</trkpt>
<trkpt lat="31.7658000" lon="34.9714100">
<ele>280.000000</ele>
<time>2010-01-01T00:44:03.000Z</time>
</trkpt>
<trkpt lat="31.7657200" lon="34.9713800">
<ele>279.000000</ele>
<time>2010-01-01T00:44:06.000Z</time>
</trkpt>
<trkpt lat="31.7657700" lon="34.9712300">
<ele>283.000000</ele>
<time>2010-01-01T00:44:12.000Z</time>
</trkpt>
<trkpt lat="31.7658200" lon="34.9711200">
<ele>288.000000</ele>
<time>2010-01-01T00:44:16.000Z</time>
</trkpt>
<trkpt lat="31.7660000" lon="34.9706600">
<ele>296.000000</ele>
<time>2010-01-01T00:44:33.000Z</time>
</trkpt>
<trkpt lat="31.7663100" lon="34.9703200">
<ele>303.000000</ele>
<time>2010-01-01T00:44:50.000Z</time>
</trkpt>
<trkpt lat="31.7665800" lon="34.9701100">
<ele>308.000000</ele>
<time>2010-01-01T00:45:03.000Z</time>
</trkpt>
<trkpt lat="31.7666200" lon="34.9700100">
<ele>308.000000</ele>
<time>2010-01-01T00:45:07.000Z</time>
</trkpt>
<trkpt lat="31.7665600" lon="34.9697700">
<ele>305.000000</ele>
<time>2010-01-01T00:45:15.000Z</time>
</trkpt>
<trkpt lat="31.7665900" lon="34.9696400">
<ele>303.000000</ele>
<time>2010-01-01T00:45:20.000Z</time>
</trkpt>
<trkpt lat="31.7667000" lon="34.9694300">
<ele>300.000000</ele>
<time>2010-01-01T00:45:28.000Z</time>
</trkpt>
<trkpt lat="31.7667900" lon="34.9693800">
<ele>300.000000</ele>
<time>2010-01-01T00:45:32.000Z</time>
</trkpt>
<trkpt lat="31.7670000" lon="34.9693400">
<ele>300.000000</ele>
<time>2010-01-01T00:45:41.000Z</time>
</trkpt>
<trkpt lat="31.7672400" lon="34.9691700">
<ele>300.000000</ele>
<time>2010-01-01T00:45:52.000Z</time>
</trkpt>
<trkpt lat="31.7673200" lon="34.9690900">
<ele>299.000000</ele>
<time>2010-01-01T00:45:56.000Z</time>
</trkpt>
<trkpt lat="31.7677900" lon="34.9687200">
<ele>297.000000</ele>
<time>2010-01-01T00:46:19.000Z</time>
</trkpt>
<trkpt lat="31.7678400" lon="34.9686300">
<ele>296.000000</ele>
<time>2010-01-01T00:46:22.000Z</time>
</trkpt>
<trkpt lat="31.7677700" lon="34.9684100">
<ele>292.000000</ele>
<time>2010-01-01T00:46:30.000Z</time>
</trkpt>
<trkpt lat="31.7677100" lon="34.9683100">
<ele>290.000000</ele>
<time>2010-01-01T00:46:35.000Z</time>
</trkpt>
<trkpt lat="31.7677000" lon="34.9679700">
<ele>283.000000</ele>
<time>2010-01-01T00:46:46.000Z</time>
</trkpt>
<trkpt lat="31.7677900" lon="34.9679300">
<ele>284.000000</ele>
<time>2010-01-01T00:46:50.000Z</time>
</trkpt>
<trkpt lat="31.7681300" lon="34.9673900">
<ele>289.000000</ele>
<time>2010-01-01T00:47:13.000Z</time>
</trkpt>
<trkpt lat="31.7685800" lon="34.9668000">
<ele>296.000000</ele>
<time>2010-01-01T00:47:40.000Z</time>
</trkpt>
<trkpt lat="31.7688300" lon="34.9666000">
<ele>305.000000</ele>
<time>2010-01-01T00:47:52.000Z</time>
</trkpt>
<trkpt lat="31.7688100" lon="34.9665500">
<ele>305.000000</ele>
<time>2010-01-01T00:48:00.000Z</time>
</trkpt>
<trkpt lat="31.7687900" lon="34.9664300">
<ele>304.000000</ele>
<time>2010-01-01T00:48:04.000Z</time>
</trkpt>
<trkpt lat="31.7688100" lon="34.9660300">
<ele>307.000000</ele>
<time>2010-01-01T00:48:17.000Z</time>
</trkpt>
<trkpt lat="31.7688000" lon="34.9659400">
<ele>308.000000</ele>
<time>2010-01-01T00:48:20.000Z</time>
</trkpt>
<trkpt lat="31.7687300" lon="34.9657700">
<ele>308.000000</ele>
<time>2010-01-01T00:48:27.000Z</time>
</trkpt>
<trkpt lat="31.7684300" lon="34.9654300">
<ele>306.000000</ele>
<time>2010-01-01T00:48:44.000Z</time>
</trkpt>
<trkpt lat="31.7683500" lon="34.9653000">
<ele>305.000000</ele>
<time>2010-01-01T00:48:49.000Z</time>
</trkpt>
<trkpt lat="31.7681500" lon="34.9649200">
<ele>302.000000</ele>
<time>2010-01-01T00:49:04.000Z</time>
</trkpt>
<trkpt lat="31.7681000" lon="34.9647900">
<ele>300.000000</ele>
<time>2010-01-01T00:49:09.000Z</time>
</trkpt>
<trkpt lat="31.7680800" lon="34.9645800">
<ele>300.000000</ele>
<time>2010-01-01T00:49:16.000Z</time>
</trkpt>
<trkpt lat="31.7681000" lon="34.9644900">
<ele>301.000000</ele>
<time>2010-01-01T00:49:19.000Z</time>
</trkpt>
<trkpt lat="31.7682000" lon="34.9642500">
<ele>303.000000</ele>
<time>2010-01-01T00:49:29.000Z</time>
</trkpt>
<trkpt lat="31.7685700" lon="34.9636100">
<ele>305.000000</ele>
<time>2010-01-01T00:49:55.000Z</time>
</trkpt>
<trkpt lat="31.7686700" lon="34.9634900">
<ele>306.000000</ele>
<time>2010-01-01T00:50:01.000Z</time>
</trkpt>
<trkpt lat="31.7687800" lon="34.9634300">
<ele>307.000000</ele>
<time>2010-01-01T00:50:05.000Z</time>
</trkpt>
<trkpt lat="31.7689500" lon="34.9634300">
<ele>311.000000</ele>
<time>2010-01-01T00:50:12.000Z</time>
</trkpt>
<trkpt lat="31.7689500" lon="34.9634300">
<ele>311.000000</ele>
<time>2010-01-01T00:50:53.000Z</time>
</trkpt>
<trkpt lat="31.7693200" lon="34.9635300">
<ele>318.000000</ele>
<time>2010-01-01T00:51:09.000Z</time>
</trkpt>
<trkpt lat="31.7694900" lon="34.9635200">
<ele>319.000000</ele>
<time>2010-01-01T00:51:15.000Z</time>
</trkpt>
<trkpt lat="31.7695900" lon="34.9635000">
<ele>319.000000</ele>
<time>2010-01-01T00:51:19.000Z</time>
</trkpt>
<trkpt lat="31.7697100" lon="34.9634200">
<ele>320.000000</ele>
<time>2010-01-01T00:51:25.000Z</time>
</trkpt>
<trkpt lat="31.7700600" lon="34.9630300">
<ele>320.000000</ele>
<time>2010-01-01T00:51:44.000Z</time>
</trkpt>
<trkpt lat="31.7701700" lon="34.9628700">
<ele>320.000000</ele>
<time>2010-01-01T00:51:51.000Z</time>
</trkpt>
<trkpt lat="31.7706600" lon="34.9620600">
<ele>326.999969</ele>
<time>2010-01-01T00:52:25.000Z</time>
</trkpt>
<trkpt lat="31.7708100" lon="34.9617300">
<ele>326.000000</ele>
<time>2010-01-01T00:52:38.000Z</time>
</trkpt>
<trkpt lat="31.7709000" lon="34.9615800">
<ele>323.999969</ele>
<time>2010-01-01T00:52:44.000Z</time>
</trkpt>
<trkpt lat="31.7709800" lon="34.9615000">
<ele>323.000000</ele>
<time>2010-01-01T00:52:48.000Z</time>
</trkpt>
<trkpt lat="31.7710800" lon="34.9614400">
<ele>323.999969</ele>
<time>2010-01-01T00:52:53.000Z</time>
</trkpt>
<trkpt lat="31.7712900" lon="34.9613800">
<ele>326.999969</ele>
<time>2010-01-01T00:53:01.000Z</time>
</trkpt>
<trkpt lat="31.7714100" lon="34.9613800">
<ele>330.000000</ele>
<time>2010-01-01T00:53:06.000Z</time>
</trkpt>
<trkpt lat="31.7717400" lon="34.9615000">
<ele>333.000000</ele>
<time>2010-01-01T00:53:20.000Z</time>
</trkpt>
<trkpt lat="31.7717400" lon="34.9615100">
<ele>333.000000</ele>
<time>2010-01-01T00:53:20.000Z</time>
</trkpt>
<trkpt lat="31.7718400" lon="34.9616600">
<ele>336.000000</ele>
<time>2010-01-01T00:53:27.000Z</time>
</trkpt>
<trkpt lat="31.7720700" lon="34.9625200">
<ele>344.000000</ele>
<time>2010-01-01T00:53:58.000Z</time>
</trkpt>
<trkpt lat="31.7720800" lon="34.9626300">
<ele>346.000031</ele>
<time>2010-01-01T00:54:01.000Z</time>
</trkpt>
<trkpt lat="31.7720300" lon="34.9627800">
<ele>349.000031</ele>
<time>2010-01-01T00:54:07.000Z</time>
</trkpt>
<trkpt lat="31.7719800" lon="34.9628500">
<ele>350.000000</ele>
<time>2010-01-01T00:54:10.000Z</time>
</trkpt>
<trkpt lat="31.7718600" lon="34.9629300">
<ele>351.000000</ele>
<time>2010-01-01T00:54:15.000Z</time>
</trkpt>
<trkpt lat="31.7717100" lon="34.9629900">
<ele>351.000000</ele>
<time>2010-01-01T00:54:23.000Z</time>
</trkpt>
<trkpt lat="31.7713317" lon="34.9632596">
<ele>345.000000</ele>
<time>2010-01-01T00:54:47.000Z</time>
</trkpt>
<trkpt lat="31.7711675" lon="34.9633669">
<ele>341.000000</ele>
<time>2010-01-01T00:55:09.000Z</time>
</trkpt>
<trkpt lat="31.7710216" lon="34.9634098">
<ele>341.000000</ele>
<time>2010-01-01T00:55:10.000Z</time>
</trkpt>
<trkpt lat="31.7708209" lon="34.9634956">
<ele>343.000000</ele>
<time>2010-01-01T00:55:19.000Z</time>
</trkpt>
<trkpt lat="31.7706750" lon="34.9636029">
<ele>340.000000</ele>
<time>2010-01-01T00:55:26.000Z</time>
</trkpt>
<trkpt lat="31.7701186" lon="34.9639033">
<ele>333.000000</ele>
<time>2010-01-01T00:56:00.000Z</time>
</trkpt>
<trkpt lat="31.7699453" lon="34.9639999">
<ele>329.000000</ele>
<time>2010-01-01T00:56:46.000Z</time>
</trkpt>
<trkpt lat="31.7698900" lon="34.9641100">
<ele>329.000000</ele>
<time>2010-01-01T00:56:46.000Z</time>
</trkpt>
<trkpt lat="31.7698300" lon="34.9642200">
<ele>330.000000</ele>
<time>2010-01-01T00:56:51.000Z</time>
</trkpt>
<trkpt lat="31.7698100" lon="34.9643400">
<ele>331.000000</ele>
<time>2010-01-01T00:56:55.000Z</time>
</trkpt>
<trkpt lat="31.7698400" lon="34.9645400">
<ele>333.000000</ele>
<time>2010-01-01T00:57:02.000Z</time>
</trkpt>
<trkpt lat="31.7699100" lon="34.9646400">
<ele>333.000000</ele>
<time>2010-01-01T00:57:06.000Z</time>
</trkpt>
<trkpt lat="31.7700200" lon="34.9647200">
<ele>334.000000</ele>
<time>2010-01-01T00:57:11.000Z</time>
</trkpt>
<trkpt lat="31.7703300" lon="34.9648800">
<ele>337.999969</ele>
<time>2010-01-01T00:57:25.000Z</time>
</trkpt>
<trkpt lat="31.7708300" lon="34.9650800">
<ele>337.999969</ele>
<time>2010-01-01T00:57:46.000Z</time>
</trkpt>
<trkpt lat="31.7710500" lon="34.9652200">
<ele>340.000000</ele>
<time>2010-01-01T00:57:56.000Z</time>
</trkpt>
<trkpt lat="31.7711900" lon="34.9653700">
<ele>342.000000</ele>
<time>2010-01-01T00:58:04.000Z</time>
</trkpt>
<trkpt lat="31.7712500" lon="34.9654700">
<ele>343.000000</ele>
<time>2010-01-01T00:58:08.000Z</time>
</trkpt>
<trkpt lat="31.7713000" lon="34.9656100">
<ele>345.000000</ele>
<time>2010-01-01T00:58:13.000Z</time>
</trkpt>
<trkpt lat="31.7713200" lon="34.9657400">
<ele>347.000000</ele>
<time>2010-01-01T00:58:17.000Z</time>
</trkpt>
<trkpt lat="31.7713100" lon="34.9661400">
<ele>350.000000</ele>
<time>2010-01-01T00:58:31.000Z</time>
</trkpt>
<trkpt lat="31.7712900" lon="34.9662600">
<ele>351.000000</ele>
<time>2010-01-01T00:58:35.000Z</time>
</trkpt>
<trkpt lat="31.7709200" lon="34.9674700">
<ele>359.000000</ele>
<time>2010-01-01T00:59:19.000Z</time>
</trkpt>
<trkpt lat="31.7706100" lon="34.9683800">
<ele>365.000000</ele>
<time>2010-01-01T00:59:52.000Z</time>
</trkpt>
<trkpt lat="31.7703100" lon="34.9693800">
<ele>367.000000</ele>
<time>2010-01-01T01:00:28.000Z</time>
</trkpt>
<trkpt lat="31.7702900" lon="34.9695200">
<ele>367.000000</ele>
<time>2010-01-01T01:00:33.000Z</time>
</trkpt>
<trkpt lat="31.7703000" lon="34.9701100">
<ele>367.000000</ele>
<time>2010-01-01T01:00:53.000Z</time>
</trkpt>
<trkpt lat="31.7703500" lon="34.9705600">
<ele>368.000000</ele>
<time>2010-01-01T01:01:09.000Z</time>
</trkpt>
<trkpt lat="31.7704700" lon="34.9709900">
<ele>371.000000</ele>
<time>2010-01-01T01:01:24.000Z</time>
</trkpt>
<trkpt lat="31.7705400" lon="34.9710500">
<ele>371.000000</ele>
<time>2010-01-01T01:01:28.000Z</time>
</trkpt>
<trkpt lat="31.7706000" lon="34.9710800">
<ele>371.000000</ele>
<time>2010-01-01T01:01:30.000Z</time>
</trkpt>
<trkpt lat="31.7706700" lon="34.9710700">
<ele>371.000000</ele>
<time>2010-01-01T01:01:33.000Z</time>
</trkpt>
<trkpt lat="31.7712100" lon="34.9706100">
<ele>367.000000</ele>
<time>2010-01-01T01:02:00.000Z</time>
</trkpt>
<trkpt lat="31.7714100" lon="34.9704600">
<ele>367.000000</ele>
<time>2010-01-01T01:02:09.000Z</time>
</trkpt>
<trkpt lat="31.7715200" lon="34.9704400">
<ele>368.000000</ele>
<time>2010-01-01T01:02:14.000Z</time>
</trkpt>
<trkpt lat="31.7715900" lon="34.9704500">
<ele>369.000000</ele>
<time>2010-01-01T01:02:17.000Z</time>
</trkpt>
<trkpt lat="31.7716600" lon="34.9704900">
<ele>370.000000</ele>
<time>2010-01-01T01:02:20.000Z</time>
</trkpt>
<trkpt lat="31.7717400" lon="34.9705700">
<ele>371.000000</ele>
<time>2010-01-01T01:02:24.000Z</time>
</trkpt>
<trkpt lat="31.7718000" lon="34.9706700">
<ele>372.000000</ele>
<time>2010-01-01T01:02:28.000Z</time>
</trkpt>
<trkpt lat="31.7719300" lon="34.9711100">
<ele>375.000000</ele>
<time>2010-01-01T01:02:44.000Z</time>
</trkpt>
<trkpt lat="31.7719300" lon="34.9711200">
<ele>375.000000</ele>
<time>2010-01-01T01:02:44.000Z</time>
</trkpt>
<trkpt lat="31.7720600" lon="34.9714700">
<ele>374.000031</ele>
<time>2010-01-01T01:02:57.000Z</time>
</trkpt>
<trkpt lat="31.7721400" lon="34.9716100">
<ele>375.000000</ele>
<time>2010-01-01T01:03:03.000Z</time>
</trkpt>
<trkpt lat="31.7725000" lon="34.9720800">
<ele>375.000000</ele>
<time>2010-01-01T01:03:25.000Z</time>
</trkpt>
<trkpt lat="31.7725800" lon="34.9722200">
<ele>376.000000</ele>
<time>2010-01-01T01:03:30.000Z</time>
</trkpt>
<trkpt lat="31.7726300" lon="34.9724400">
<ele>375.000000</ele>
<time>2010-01-01T01:03:38.000Z</time>
</trkpt>
<trkpt lat="31.7726000" lon="34.9725900">
<ele>375.000000</ele>
<time>2010-01-01T01:03:43.000Z</time>
</trkpt>
<trkpt lat="31.7725400" lon="34.9727600">
<ele>375.000000</ele>
<time>2010-01-01T01:03:50.000Z</time>
</trkpt>
<trkpt lat="31.7724200" lon="34.9729900">
<ele>378.000000</ele>
<time>2010-01-01T01:03:59.000Z</time>
</trkpt>
<trkpt lat="31.7722000" lon="34.9732500">
<ele>383.000000</ele>
<time>2010-01-01T01:04:11.000Z</time>
</trkpt>
<trkpt lat="31.7718000" lon="34.9736100">
<ele>387.000000</ele>
<time>2010-01-01T01:04:31.000Z</time>
</trkpt>
<trkpt lat="31.7716900" lon="34.9737600">
<ele>387.999969</ele>
<time>2010-01-01T01:04:38.000Z</time>
</trkpt>
<trkpt lat="31.7716000" lon="34.9739100">
<ele>389.000000</ele>
<time>2010-01-01T01:04:44.000Z</time>
</trkpt>
<trkpt lat="31.7715600" lon="34.9740500">
<ele>390.000000</ele>
<time>2010-01-01T01:04:49.000Z</time>
</trkpt>
<trkpt lat="31.7715300" lon="34.9741900">
<ele>390.000000</ele>
<time>2010-01-01T01:04:54.000Z</time>
</trkpt>
<trkpt lat="31.7715400" lon="34.9744800">
<ele>389.000000</ele>
<time>2010-01-01T01:05:04.000Z</time>
</trkpt>
<trkpt lat="31.7715600" lon="34.9746100">
<ele>389.000000</ele>
<time>2010-01-01T01:05:09.000Z</time>
</trkpt>
<trkpt lat="31.7715300" lon="34.9745800">
<ele>389.000000</ele>
<time>2010-01-01T01:05:10.000Z</time>
</trkpt>
<trkpt lat="31.7715400" lon="34.9745800">
<ele>389.000000</ele>
<time>2010-01-01T01:05:11.000Z</time>
</trkpt>
<trkpt lat="31.7717500" lon="34.9749700">
<ele>390.000000</ele>
<time>2010-01-01T01:05:26.000Z</time>
</trkpt>
<trkpt lat="31.7722900" lon="34.9756100">
<ele>389.000000</ele>
<time>2010-01-01T01:05:57.000Z</time>
</trkpt>
<trkpt lat="31.7724000" lon="34.9757700">
<ele>390.000000</ele>
<time>2010-01-01T01:06:04.000Z</time>
</trkpt>
<trkpt lat="31.7724000" lon="34.9757800">
<ele>390.000000</ele>
<time>2010-01-01T01:06:04.000Z</time>
</trkpt>
<trkpt lat="31.7727400" lon="34.9762600">
<ele>387.999969</ele>
<time>2010-01-01T01:06:26.000Z</time>
</trkpt>
<trkpt lat="31.7729300" lon="34.9765800">
<ele>387.000000</ele>
<time>2010-01-01T01:06:39.000Z</time>
</trkpt>
<trkpt lat="31.7729800" lon="34.9767100">
<ele>386.000000</ele>
<time>2010-01-01T01:06:44.000Z</time>
</trkpt>
<trkpt lat="31.7730300" lon="34.9770100">
<ele>386.000000</ele>
<time>2010-01-01T01:06:54.000Z</time>
</trkpt>
<trkpt lat="31.7730000" lon="34.9772300">
<ele>386.000000</ele>
<time>2010-01-01T01:07:02.000Z</time>
</trkpt>
<trkpt lat="31.7730000" lon="34.9774700">
<ele>385.000031</ele>
<time>2010-01-01T01:07:10.000Z</time>
</trkpt>
<trkpt lat="31.7729600" lon="34.9777200">
<ele>385.000031</ele>
<time>2010-01-01T01:07:19.000Z</time>
</trkpt>
<trkpt lat="31.7729700" lon="34.9779000">
<ele>384.000000</ele>
<time>2010-01-01T01:07:25.000Z</time>
</trkpt>
<trkpt lat="31.7730600" lon="34.9784000">
<ele>380.000000</ele>
<time>2010-01-01T01:07:42.000Z</time>
</trkpt>
<trkpt lat="31.7731200" lon="34.9786000">
<ele>379.000000</ele>
<time>2010-01-01T01:07:49.000Z</time>
</trkpt>
<trkpt lat="31.7732000" lon="34.9787600">
<ele>376.999969</ele>
<time>2010-01-01T01:07:56.000Z</time>
</trkpt>
<trkpt lat="31.7731700" lon="34.9787600">
<ele>378.000000</ele>
<time>2010-01-01T01:07:57.000Z</time>
</trkpt>
<trkpt lat="31.7731800" lon="34.9787600">
<ele>376.999969</ele>
<time>2010-01-01T01:07:57.000Z</time>
</trkpt>
<trkpt lat="31.7732000" lon="34.9787600">
<ele>376.999969</ele>
<time>2010-01-01T01:07:58.000Z</time>
</trkpt>
<trkpt lat="31.7733700" lon="34.9790800">
<ele>376.999969</ele>
<time>2010-01-01T01:08:11.000Z</time>
</trkpt>
<trkpt lat="31.7734900" lon="34.9791200">
<ele>379.000000</ele>
<time>2010-01-01T01:08:16.000Z</time>
</trkpt>
<trkpt lat="31.7737400" lon="34.9791200">
<ele>383.000000</ele>
<time>2010-01-01T01:08:26.000Z</time>
</trkpt>
<trkpt lat="31.7738800" lon="34.9790400">
<ele>384.000000</ele>
<time>2010-01-01T01:08:32.000Z</time>
</trkpt>
<trkpt lat="31.7740100" lon="34.9789000">
<ele>386.000000</ele>
<time>2010-01-01T01:08:39.000Z</time>
</trkpt>
<trkpt lat="31.7742000" lon="34.9784300">
<ele>383.000000</ele>
<time>2010-01-01T01:08:57.000Z</time>
</trkpt>
<trkpt lat="31.7744500" lon="34.9782100">
<ele>385.000031</ele>
<time>2010-01-01T01:09:09.000Z</time>
</trkpt>
<trkpt lat="31.7748000" lon="34.9781900">
<ele>389.000000</ele>
<time>2010-01-01T01:09:23.000Z</time>
</trkpt>
<trkpt lat="31.7755000" lon="34.9783600">
<ele>396.000000</ele>
<time>2010-01-01T01:09:52.000Z</time>
</trkpt>
<trkpt lat="31.7758000" lon="34.9784300">
<ele>398.000000</ele>
<time>2010-01-01T01:10:05.000Z</time>
</trkpt>
<trkpt lat="31.7759400" lon="34.9782400">
<ele>398.000000</ele>
<time>2010-01-01T01:10:13.000Z</time>
</trkpt>
<trkpt lat="31.7763400" lon="34.9773200">
<ele>394.000000</ele>
<time>2010-01-01T01:10:49.000Z</time>
</trkpt>
<trkpt lat="31.7764200" lon="34.9771900">
<ele>395.000000</ele>
<time>2010-01-01T01:10:54.000Z</time>
</trkpt>
<trkpt lat="31.7764800" lon="34.9769400">
<ele>396.000000</ele>
<time>2010-01-01T01:11:03.000Z</time>
</trkpt>
<trkpt lat="31.7767000" lon="34.9763400">
<ele>399.000031</ele>
<time>2010-01-01T01:11:25.000Z</time>
</trkpt>
<trkpt lat="31.7768200" lon="34.9761400">
<ele>398.000000</ele>
<time>2010-01-01T01:11:33.000Z</time>
</trkpt>
<trkpt lat="31.7768900" lon="34.9760600">
<ele>397.000000</ele>
<time>2010-01-01T01:11:37.000Z</time>
</trkpt>
<trkpt lat="31.7775100" lon="34.9756700">
<ele>391.000000</ele>
<time>2010-01-01T01:12:06.000Z</time>
</trkpt>
<trkpt lat="31.7776100" lon="34.9755800">
<ele>390.000000</ele>
<time>2010-01-01T01:12:11.000Z</time>
</trkpt>
<trkpt lat="31.7776600" lon="34.9755000">
<ele>389.000000</ele>
<time>2010-01-01T01:12:14.000Z</time>
</trkpt>
<trkpt lat="31.7777100" lon="34.9753300">
<ele>387.999969</ele>
<time>2010-01-01T01:12:20.000Z</time>
</trkpt>
<trkpt lat="31.7777000" lon="34.9752100">
<ele>387.000000</ele>
<time>2010-01-01T01:12:24.000Z</time>
</trkpt>
<trkpt lat="31.7776200" lon="34.9749800">
<ele>386.000000</ele>
<time>2010-01-01T01:12:33.000Z</time>
</trkpt>
<trkpt lat="31.7771600" lon="34.9740200">
<ele>380.000000</ele>
<time>2010-01-01T01:13:10.000Z</time>
</trkpt>
<trkpt lat="31.7770800" lon="34.9737000">
<ele>382.000000</ele>
<time>2010-01-01T01:13:23.000Z</time>
</trkpt>
<trkpt lat="31.7769700" lon="34.9735400">
<ele>387.000000</ele>
<time>2010-01-01T01:13:30.000Z</time>
</trkpt>
<trkpt lat="31.7768800" lon="34.9732400">
<ele>394.000000</ele>
<time>2010-01-01T01:13:41.000Z</time>
</trkpt>
<trkpt lat="31.7768200" lon="34.9729300">
<ele>397.000000</ele>
<time>2010-01-01T01:13:52.000Z</time>
</trkpt>
<trkpt lat="31.7767300" lon="34.9726700">
<ele>398.000000</ele>
<time>2010-01-01T01:14:01.000Z</time>
</trkpt>
<trkpt lat="31.7767100" lon="34.9725200">
<ele>397.000000</ele>
<time>2010-01-01T01:14:06.000Z</time>
</trkpt>
<trkpt lat="31.7767400" lon="34.9722800">
<ele>397.000000</ele>
<time>2010-01-01T01:14:15.000Z</time>
</trkpt>
<trkpt lat="31.7767500" lon="34.9720900">
<ele>397.000000</ele>
<time>2010-01-01T01:14:21.000Z</time>
</trkpt>
<trkpt lat="31.7767500" lon="34.9720300">
<ele>397.000000</ele>
<time>2010-01-01T01:14:23.000Z</time>
</trkpt>
<trkpt lat="31.7768100" lon="34.9717900">
<ele>395.000000</ele>
<time>2010-01-01T01:14:32.000Z</time>
</trkpt>
<trkpt lat="31.7769100" lon="34.9715600">
<ele>392.000000</ele>
<time>2010-01-01T01:14:40.000Z</time>
</trkpt>
<trkpt lat="31.7774000" lon="34.9707700">
<ele>378.000000</ele>
<time>2010-01-01T01:15:14.000Z</time>
</trkpt>
<trkpt lat="31.7775600" lon="34.9697200">
<ele>381.000000</ele>
<time>2010-01-01T01:15:50.000Z</time>
</trkpt>
<trkpt lat="31.7775500" lon="34.9688100">
<ele>385.000031</ele>
<time>2010-01-01T01:16:21.000Z</time>
</trkpt>
<trkpt lat="31.7775900" lon="34.9680000">
<ele>379.000000</ele>
<time>2010-01-01T01:16:48.000Z</time>
</trkpt>
<trkpt lat="31.7777800" lon="34.9674400">
<ele>375.000000</ele>
<time>2010-01-01T01:17:09.000Z</time>
</trkpt>
<trkpt lat="31.7779300" lon="34.9671000">
<ele>366.000000</ele>
<time>2010-01-01T01:17:22.000Z</time>
</trkpt>
<trkpt lat="31.7781400" lon="34.9664900">
<ele>353.000000</ele>
<time>2010-01-01T01:17:47.000Z</time>
</trkpt>
<trkpt lat="31.7782700" lon="34.9665700">
<ele>354.000000</ele>
<time>2010-01-01T01:17:52.000Z</time>
</trkpt>
<trkpt lat="31.7784300" lon="34.9667900">
<ele>351.999969</ele>
<time>2010-01-01T01:18:02.000Z</time>
</trkpt>
<trkpt lat="31.7784600" lon="34.9669000">
<ele>353.000000</ele>
<time>2010-01-01T01:18:06.000Z</time>
</trkpt>
<trkpt lat="31.7785500" lon="34.9674200">
<ele>353.000000</ele>
<time>2010-01-01T01:18:24.000Z</time>
</trkpt>
<trkpt lat="31.7788400" lon="34.9687200">
<ele>348.000000</ele>
<time>2010-01-01T01:19:10.000Z</time>
</trkpt>
<trkpt lat="31.7788900" lon="34.9690900">
<ele>348.000000</ele>
<time>2010-01-01T01:19:23.000Z</time>
</trkpt>
<trkpt lat="31.7789200" lon="34.9692100">
<ele>349.000031</ele>
<time>2010-01-01T01:19:27.000Z</time>
</trkpt>
<trkpt lat="31.7790100" lon="34.9692700">
<ele>350.000000</ele>
<time>2010-01-01T01:19:31.000Z</time>
</trkpt>
<trkpt lat="31.7790900" lon="34.9691900">
<ele>350.000000</ele>
<time>2010-01-01T01:19:35.000Z</time>
</trkpt>
<trkpt lat="31.7791400" lon="34.9689800">
<ele>348.000000</ele>
<time>2010-01-01T01:19:43.000Z</time>
</trkpt>
<trkpt lat="31.7792300" lon="34.9683300">
<ele>344.000000</ele>
<time>2010-01-01T01:20:05.000Z</time>
</trkpt>
<trkpt lat="31.7792200" lon="34.9679400">
<ele>340.000000</ele>
<time>2010-01-01T01:20:19.000Z</time>
</trkpt>
<trkpt lat="31.7792300" lon="34.9676700">
<ele>337.999969</ele>
<time>2010-01-01T01:20:28.000Z</time>
</trkpt>
<trkpt lat="31.7792900" lon="34.9674500">
<ele>336.000000</ele>
<time>2010-01-01T01:20:36.000Z</time>
</trkpt>
<trkpt lat="31.7793400" lon="34.9671000">
<ele>333.000000</ele>
<time>2010-01-01T01:20:48.000Z</time>
</trkpt>
<trkpt lat="31.7794200" lon="34.9667800">
<ele>332.000000</ele>
<time>2010-01-01T01:20:59.000Z</time>
</trkpt>
<trkpt lat="31.7794800" lon="34.9665700">
<ele>330.000000</ele>
<time>2010-01-01T01:21:07.000Z</time>
</trkpt>
<trkpt lat="31.7796400" lon="34.9662700">
<ele>328.000000</ele>
<time>2010-01-01T01:21:19.000Z</time>
</trkpt>
<trkpt lat="31.7799700" lon="34.9657200">
<ele>323.999969</ele>
<time>2010-01-01T01:21:42.000Z</time>
</trkpt>
<trkpt lat="31.7800500" lon="34.9655300">
<ele>323.000000</ele>
<time>2010-01-01T01:21:49.000Z</time>
</trkpt>
<trkpt lat="31.7801300" lon="34.9653900">
<ele>322.000000</ele>
<time>2010-01-01T01:21:54.000Z</time>
</trkpt>
<trkpt lat="31.7804700" lon="34.9650000">
<ele>315.000000</ele>
<time>2010-01-01T01:22:13.000Z</time>
</trkpt>
<trkpt lat="31.7805800" lon="34.9649000">
<ele>312.999969</ele>
<time>2010-01-01T01:22:19.000Z</time>
</trkpt>
<trkpt lat="31.7808000" lon="34.9647600">
<ele>308.000000</ele>
<time>2010-01-01T01:22:29.000Z</time>
</trkpt>
<trkpt lat="31.7809500" lon="34.9646300">
<ele>307.000000</ele>
<time>2010-01-01T01:22:37.000Z</time>
</trkpt>
<trkpt lat="31.7809500" lon="34.9646300">
<ele>307.000000</ele>
<time>2010-01-01T01:22:46.000Z</time>
</trkpt>
<trkpt lat="31.7817700" lon="34.9639600">
<ele>296.000000</ele>
<time>2010-01-01T01:23:26.000Z</time>
</trkpt>
<trkpt lat="31.7819100" lon="34.9638600">
<ele>295.000000</ele>
<time>2010-01-01T01:23:32.000Z</time>
</trkpt>
<trkpt lat="31.7820100" lon="34.9638200">
<ele>294.000000</ele>
<time>2010-01-01T01:23:37.000Z</time>
</trkpt>
<trkpt lat="31.7821500" lon="34.9636900">
<ele>291.000000</ele>
<time>2010-01-01T01:23:44.000Z</time>
</trkpt>
<trkpt lat="31.7822500" lon="34.9635700">
<ele>289.000000</ele>
<time>2010-01-01T01:23:50.000Z</time>
</trkpt>
<trkpt lat="31.7825100" lon="34.9634100">
<ele>285.000000</ele>
<time>2010-01-01T01:24:01.000Z</time>
</trkpt>
<trkpt lat="31.7826200" lon="34.9633000">
<ele>285.000000</ele>
<time>2010-01-01T01:24:07.000Z</time>
</trkpt>
<trkpt lat="31.7828300" lon="34.9631300">
<ele>284.000000</ele>
<time>2010-01-01T01:24:17.000Z</time>
</trkpt>
<trkpt lat="31.7829000" lon="34.9630300">
<ele>284.000000</ele>
<time>2010-01-01T01:24:22.000Z</time>
</trkpt>
<trkpt lat="31.7829400" lon="34.9629200">
<ele>284.000000</ele>
<time>2010-01-01T01:24:26.000Z</time>
</trkpt>
<trkpt lat="31.7830300" lon="34.9627800">
<ele>284.000000</ele>
<time>2010-01-01T01:24:32.000Z</time>
</trkpt>
<trkpt lat="31.7831400" lon="34.9626700">
<ele>283.000000</ele>
<time>2010-01-01T01:24:38.000Z</time>
</trkpt>
<trkpt lat="31.7835800" lon="34.9624900">
<ele>279.000000</ele>
<time>2010-01-01T01:24:56.000Z</time>
</trkpt>
<trkpt lat="31.7837300" lon="34.9624700">
<ele>277.000000</ele>
<time>2010-01-01T01:25:02.000Z</time>
</trkpt>
<trkpt lat="31.7841600" lon="34.9624700">
<ele>274.000000</ele>
<time>2010-01-01T01:25:19.000Z</time>
</trkpt>
<trkpt lat="31.7843400" lon="34.9624500">
<ele>271.000000</ele>
<time>2010-01-01T01:25:27.000Z</time>
</trkpt>
<trkpt lat="31.7845500" lon="34.9623600">
<ele>268.000000</ele>
<time>2010-01-01T01:25:36.000Z</time>
</trkpt>
<trkpt lat="31.7846600" lon="34.9623600">
<ele>266.000000</ele>
<time>2010-01-01T01:25:40.000Z</time>
</trkpt>
<trkpt lat="31.7847900" lon="34.9622800">
<ele>264.000000</ele>
<time>2010-01-01T01:25:46.000Z</time>
</trkpt>
<trkpt lat="31.7849000" lon="34.9621700">
<ele>263.000000</ele>
<time>2010-01-01T01:25:52.000Z</time>
</trkpt>
<trkpt lat="31.7850200" lon="34.9620800">
<ele>261.000000</ele>
<time>2010-01-01T01:25:57.000Z</time>
</trkpt>
<trkpt lat="31.7852800" lon="34.9616800">
<ele>257.000000</ele>
<time>2010-01-01T01:26:15.000Z</time>
</trkpt>
<trkpt lat="31.7853900" lon="34.9615700">
<ele>256.000000</ele>
<time>2010-01-01T01:26:20.000Z</time>
</trkpt>
<trkpt lat="31.7854700" lon="34.9614100">
<ele>256.000000</ele>
<time>2010-01-01T01:26:27.000Z</time>
</trkpt>
<trkpt lat="31.7858600" lon="34.9609000">
<ele>250.000000</ele>
<time>2010-01-01T01:26:50.000Z</time>
</trkpt>
<trkpt lat="31.7858700" lon="34.9609100">
<ele>250.000000</ele>
<time>2010-01-01T01:26:50.000Z</time>
</trkpt>
<trkpt lat="31.7857800" lon="34.9613700">
<ele>253.000000</ele>
<time>2010-01-01T01:27:07.000Z</time>
</trkpt>
<trkpt lat="31.7858500" lon="34.9616000">
<ele>253.000000</ele>
<time>2010-01-01T01:27:15.000Z</time>
</trkpt>
<trkpt lat="31.7859200" lon="34.9616900">
<ele>254.000000</ele>
<time>2010-01-01T01:27:19.000Z</time>
</trkpt>
<trkpt lat="31.7860600" lon="34.9618000">
<ele>256.000000</ele>
<time>2010-01-01T01:27:26.000Z</time>
</trkpt>
<trkpt lat="31.7861900" lon="34.9618500">
<ele>257.000000</ele>
<time>2010-01-01T01:27:31.000Z</time>
</trkpt>
<trkpt lat="31.7863700" lon="34.9618900">
<ele>259.000000</ele>
<time>2010-01-01T01:27:39.000Z</time>
</trkpt>
<trkpt lat="31.7867300" lon="34.9620400">
<ele>264.000000</ele>
<time>2010-01-01T01:27:54.000Z</time>
</trkpt>
<trkpt lat="31.7869600" lon="34.9621600">
<ele>267.000000</ele>
<time>2010-01-01T01:28:04.000Z</time>
</trkpt>
<trkpt lat="31.7872700" lon="34.9623500">
<ele>270.000000</ele>
<time>2010-01-01T01:28:18.000Z</time>
</trkpt>
<trkpt lat="31.7876800" lon="34.9625500">
<ele>271.000000</ele>
<time>2010-01-01T01:28:36.000Z</time>
</trkpt>
<trkpt lat="31.7879000" lon="34.9626300">
<ele>271.000000</ele>
<time>2010-01-01T01:28:45.000Z</time>
</trkpt>
<trkpt lat="31.7880100" lon="34.9627100">
<ele>271.000000</ele>
<time>2010-01-01T01:28:50.000Z</time>
</trkpt>
<trkpt lat="31.7880600" lon="34.9627900">
<ele>272.000000</ele>
<time>2010-01-01T01:28:53.000Z</time>
</trkpt>
<trkpt lat="31.7880700" lon="34.9629000">
<ele>272.000000</ele>
<time>2010-01-01T01:28:57.000Z</time>
</trkpt>
<trkpt lat="31.7880400" lon="34.9630800">
<ele>273.000000</ele>
<time>2010-01-01T01:29:03.000Z</time>
</trkpt>
<trkpt lat="31.7879900" lon="34.9632100">
<ele>273.000000</ele>
<time>2010-01-01T01:29:08.000Z</time>
</trkpt>
<trkpt lat="31.7874800" lon="34.9641000">
<ele>276.000000</ele>
<time>2010-01-01T01:29:45.000Z</time>
</trkpt>
<trkpt lat="31.7871100" lon="34.9645900">
<ele>275.000000</ele>
<time>2010-01-01T01:30:07.000Z</time>
</trkpt>
<trkpt lat="31.7870100" lon="34.9646600">
<ele>275.000000</ele>
<time>2010-01-01T01:30:12.000Z</time>
</trkpt>
<trkpt lat="31.7868300" lon="34.9647100">
<ele>277.000000</ele>
<time>2010-01-01T01:30:19.000Z</time>
</trkpt>
<trkpt lat="31.7867500" lon="34.9647500">
<ele>278.000000</ele>
<time>2010-01-01T01:30:23.000Z</time>
</trkpt>
<trkpt lat="31.7866500" lon="34.9648500">
<ele>279.000000</ele>
<time>2010-01-01T01:30:28.000Z</time>
</trkpt>
<trkpt lat="31.7866100" lon="34.9649400">
<ele>279.000000</ele>
<time>2010-01-01T01:30:31.000Z</time>
</trkpt>
<trkpt lat="31.7866100" lon="34.9650600">
<ele>278.000000</ele>
<time>2010-01-01T01:30:35.000Z</time>
</trkpt>
<trkpt lat="31.7866700" lon="34.9651600">
<ele>278.000000</ele>
<time>2010-01-01T01:30:40.000Z</time>
</trkpt>
<trkpt lat="31.7867400" lon="34.9651500">
<ele>277.000000</ele>
<time>2010-01-01T01:30:43.000Z</time>
</trkpt>
<trkpt lat="31.7871400" lon="34.9650100">
<ele>270.000000</ele>
<time>2010-01-01T01:30:59.000Z</time>
</trkpt>
<trkpt lat="31.7874800" lon="34.9649600">
<ele>266.000000</ele>
<time>2010-01-01T01:31:13.000Z</time>
</trkpt>
<trkpt lat="31.7876000" lon="34.9649300">
<ele>265.000000</ele>
<time>2010-01-01T01:31:18.000Z</time>
</trkpt>
<trkpt lat="31.7880700" lon="34.9647200">
<ele>260.000000</ele>
<time>2010-01-01T01:31:38.000Z</time>
</trkpt>
<trkpt lat="31.7887300" lon="34.9647900">
<ele>255.000000</ele>
<time>2010-01-01T01:32:05.000Z</time>
</trkpt>
<trkpt lat="31.7893500" lon="34.9647200">
<ele>250.000000</ele>
<time>2010-01-01T01:32:30.000Z</time>
</trkpt>
<trkpt lat="31.7896300" lon="34.9646400">
<ele>246.000000</ele>
<time>2010-01-01T01:32:41.000Z</time>
</trkpt>
<trkpt lat="31.7899800" lon="34.9644800">
<ele>240.000000</ele>
<time>2010-01-01T01:32:56.000Z</time>
</trkpt>
<trkpt lat="31.7901800" lon="34.9643600">
<ele>237.000015</ele>
<time>2010-01-01T01:33:05.000Z</time>
</trkpt>
<trkpt lat="31.7907800" lon="34.9640900">
<ele>234.000000</ele>
<time>2010-01-01T01:33:31.000Z</time>
</trkpt>
<trkpt lat="31.7912100" lon="34.9639700">
<ele>230.000000</ele>
<time>2010-01-01T01:33:48.000Z</time>
</trkpt>
<trkpt lat="31.7914700" lon="34.9639300">
<ele>227.000000</ele>
<time>2010-01-01T01:33:59.000Z</time>
</trkpt>
<trkpt lat="31.7916600" lon="34.9638400">
<ele>225.000000</ele>
<time>2010-01-01T01:34:07.000Z</time>
</trkpt>
<trkpt lat="31.7918000" lon="34.9637400">
<ele>224.000000</ele>
<time>2010-01-01T01:34:14.000Z</time>
</trkpt>
<trkpt lat="31.7920100" lon="34.9635300">
<ele>223.000000</ele>
<time>2010-01-01T01:34:25.000Z</time>
</trkpt>
<trkpt lat="31.7922400" lon="34.9632500">
<ele>224.000000</ele>
<time>2010-01-01T01:34:38.000Z</time>
</trkpt>
<trkpt lat="31.7924800" lon="34.9630100">
<ele>222.000000</ele>
<time>2010-01-01T01:34:51.000Z</time>
</trkpt>
<trkpt lat="31.7928700" lon="34.9626900">
<ele>215.000000</ele>
<time>2010-01-01T01:35:10.000Z</time>
</trkpt>
<trkpt lat="31.7934800" lon="34.9620100">
<ele>211.000000</ele>
<time>2010-01-01T01:35:43.000Z</time>
</trkpt>
<trkpt lat="31.7938300" lon="34.9617200">
<ele>210.000000</ele>
<time>2010-01-01T01:36:00.000Z</time>
</trkpt>
<trkpt lat="31.7940400" lon="34.9614800">
<ele>209.000000</ele>
<time>2010-01-01T01:36:12.000Z</time>
</trkpt>
<trkpt lat="31.7942300" lon="34.9612100">
<ele>207.000000</ele>
<time>2010-01-01T01:36:24.000Z</time>
</trkpt>
<trkpt lat="31.7943700" lon="34.9611700">
<ele>205.000015</ele>
<time>2010-01-01T01:36:30.000Z</time>
</trkpt>
<trkpt lat="31.7944900" lon="34.9610900">
<ele>203.000000</ele>
<time>2010-01-01T01:36:35.000Z</time>
</trkpt>
<trkpt lat="31.7945600" lon="34.9609800">
<ele>203.000000</ele>
<time>2010-01-01T01:36:40.000Z</time>
</trkpt>
<trkpt lat="31.7946900" lon="34.9607200">
<ele>206.000000</ele>
<time>2010-01-01T01:36:50.000Z</time>
</trkpt>
<trkpt lat="31.7947600" lon="34.9606500">
<ele>207.000000</ele>
<time>2010-01-01T01:36:54.000Z</time>
</trkpt>
<trkpt lat="31.7948300" lon="34.9606300">
<ele>206.000000</ele>
<time>2010-01-01T01:36:57.000Z</time>
</trkpt>
<trkpt lat="31.7949800" lon="34.9606800">
<ele>204.000000</ele>
<time>2010-01-01T01:37:03.000Z</time>
</trkpt>
<trkpt lat="31.7951100" lon="34.9607500">
<ele>202.000000</ele>
<time>2010-01-01T01:37:09.000Z</time>
</trkpt>
<trkpt lat="31.7954600" lon="34.9610000">
<ele>199.000000</ele>
<time>2010-01-01T01:37:25.000Z</time>
</trkpt>
<trkpt lat="31.7955800" lon="34.9610600">
<ele>199.000000</ele>
<time>2010-01-01T01:37:30.000Z</time>
</trkpt>
<trkpt lat="31.7956800" lon="34.9610600">
<ele>199.000000</ele>
<time>2010-01-01T01:37:34.000Z</time>
</trkpt>
<trkpt lat="31.7959900" lon="34.9609200">
<ele>199.000000</ele>
<time>2010-01-01T01:37:48.000Z</time>
</trkpt>
<trkpt lat="31.7960200" lon="34.9609100">
<ele>199.000000</ele>
<time>2010-01-01T01:37:49.000Z</time>
</trkpt>
<trkpt lat="31.7961000" lon="34.9610400">
<ele>200.000000</ele>
<time>2010-01-01T01:37:54.000Z</time>
</trkpt>
<trkpt lat="31.7961000" lon="34.9611300">
<ele>200.999985</ele>
<time>2010-01-01T01:37:58.000Z</time>
</trkpt>
<trkpt lat="31.7960800" lon="34.9612100">
<ele>200.999985</ele>
<time>2010-01-01T01:38:00.000Z</time>
</trkpt>
<trkpt lat="31.7960400" lon="34.9612800">
<ele>202.000000</ele>
<time>2010-01-01T01:38:03.000Z</time>
</trkpt>
<trkpt lat="31.7958700" lon="34.9614300">
<ele>202.000000</ele>
<time>2010-01-01T01:38:12.000Z</time>
</trkpt>
<trkpt lat="31.7957400" lon="34.9615800">
<ele>202.000000</ele>
<time>2010-01-01T01:38:19.000Z</time>
</trkpt>
<trkpt lat="31.7955700" lon="34.9618500">
<ele>202.000000</ele>
<time>2010-01-01T01:38:30.000Z</time>
</trkpt>
<trkpt lat="31.7955500" lon="34.9619300">
<ele>202.000000</ele>
<time>2010-01-01T01:38:33.000Z</time>
</trkpt>
<trkpt lat="31.7955700" lon="34.9621000">
<ele>204.000000</ele>
<time>2010-01-01T01:38:39.000Z</time>
</trkpt>
<trkpt lat="31.7957000" lon="34.9625400">
<ele>209.000000</ele>
<time>2010-01-01T01:38:55.000Z</time>
</trkpt>
<trkpt lat="31.7957500" lon="34.9628700">
<ele>212.000015</ele>
<time>2010-01-01T01:39:06.000Z</time>
</trkpt>
<trkpt lat="31.7957700" lon="34.9630800">
<ele>214.000000</ele>
<time>2010-01-01T01:39:14.000Z</time>
</trkpt>
<trkpt lat="31.7958000" lon="34.9640700">
<ele>217.000000</ele>
<time>2010-01-01T01:39:47.000Z</time>
</trkpt>
<trkpt lat="31.7956800" lon="34.9645200">
<ele>218.000000</ele>
<time>2010-01-01T01:40:03.000Z</time>
</trkpt>
<trkpt lat="31.7956300" lon="34.9646200">
<ele>218.000000</ele>
<time>2010-01-01T01:40:07.000Z</time>
</trkpt>
<trkpt lat="31.7955200" lon="34.9647100">
<ele>219.000015</ele>
<time>2010-01-01T01:40:13.000Z</time>
</trkpt>
<trkpt lat="31.7952600" lon="34.9648500">
<ele>221.000000</ele>
<time>2010-01-01T01:40:24.000Z</time>
</trkpt>
<trkpt lat="31.7950800" lon="34.9652500">
<ele>223.000000</ele>
<time>2010-01-01T01:40:39.000Z</time>
</trkpt>
<trkpt lat="31.7949400" lon="34.9654400">
<ele>225.000000</ele>
<time>2010-01-01T01:40:48.000Z</time>
</trkpt>
<trkpt lat="31.7944800" lon="34.9664500">
<ele>238.000000</ele>
<time>2010-01-01T01:41:27.000Z</time>
</trkpt>
<trkpt lat="31.7943000" lon="34.9667600">
<ele>241.000000</ele>
<time>2010-01-01T01:41:40.000Z</time>
</trkpt>
<trkpt lat="31.7942600" lon="34.9669500">
<ele>243.000000</ele>
<time>2010-01-01T01:41:46.000Z</time>
</trkpt>
<trkpt lat="31.7942500" lon="34.9670800">
<ele>242.000000</ele>
<time>2010-01-01T01:41:51.000Z</time>
</trkpt>
<trkpt lat="31.7942700" lon="34.9675000">
<ele>239.000000</ele>
<time>2010-01-01T01:42:05.000Z</time>
</trkpt>
<trkpt lat="31.7942400" lon="34.9678500">
<ele>241.000000</ele>
<time>2010-01-01T01:42:17.000Z</time>
</trkpt>
<trkpt lat="31.7942400" lon="34.9683100">
<ele>241.000000</ele>
<time>2010-01-01T01:42:33.000Z</time>
</trkpt>
<trkpt lat="31.7941400" lon="34.9692100">
<ele>237.000015</ele>
<time>2010-01-01T01:43:04.000Z</time>
</trkpt>
<trkpt lat="31.7941600" lon="34.9693500">
<ele>237.000015</ele>
<time>2010-01-01T01:43:09.000Z</time>
</trkpt>
<trkpt lat="31.7942200" lon="34.9694700">
<ele>236.000000</ele>
<time>2010-01-01T01:43:13.000Z</time>
</trkpt>
<trkpt lat="31.7943000" lon="34.9695900">
<ele>236.000000</ele>
<time>2010-01-01T01:43:18.000Z</time>
</trkpt>
<trkpt lat="31.7944000" lon="34.9696600">
<ele>235.000000</ele>
<time>2010-01-01T01:43:23.000Z</time>
</trkpt>
<trkpt lat="31.7945400" lon="34.9697000">
<ele>232.000000</ele>
<time>2010-01-01T01:43:29.000Z</time>
</trkpt>
<trkpt lat="31.7947900" lon="34.9697200">
<ele>228.000000</ele>
<time>2010-01-01T01:43:39.000Z</time>
</trkpt>
<trkpt lat="31.7950500" lon="34.9698500">
<ele>225.000000</ele>
<time>2010-01-01T01:43:50.000Z</time>
</trkpt>
<trkpt lat="31.7951800" lon="34.9699700">
<ele>223.000000</ele>
<time>2010-01-01T01:43:57.000Z</time>
</trkpt>
<trkpt lat="31.7953100" lon="34.9701300">
<ele>222.000000</ele>
<time>2010-01-01T01:44:04.000Z</time>
</trkpt>
<trkpt lat="31.7954300" lon="34.9703800">
<ele>222.000000</ele>
<time>2010-01-01T01:44:14.000Z</time>
</trkpt>
<trkpt lat="31.7957900" lon="34.9708200">
<ele>218.000000</ele>
<time>2010-01-01T01:44:35.000Z</time>
</trkpt>
<trkpt lat="31.7959600" lon="34.9710600">
<ele>217.000000</ele>
<time>2010-01-01T01:44:46.000Z</time>
</trkpt>
<trkpt lat="31.7960100" lon="34.9712200">
<ele>216.000000</ele>
<time>2010-01-01T01:44:51.000Z</time>
</trkpt>
<trkpt lat="31.7960400" lon="34.9715300">
<ele>216.000000</ele>
<time>2010-01-01T01:45:02.000Z</time>
</trkpt>
<trkpt lat="31.7959400" lon="34.9718500">
<ele>217.000000</ele>
<time>2010-01-01T01:45:14.000Z</time>
</trkpt>
<trkpt lat="31.7958400" lon="34.9720600">
<ele>217.000000</ele>
<time>2010-01-01T01:45:22.000Z</time>
</trkpt>
<trkpt lat="31.7957000" lon="34.9722800">
<ele>218.000000</ele>
<time>2010-01-01T01:45:31.000Z</time>
</trkpt>
<trkpt lat="31.7956700" lon="34.9723700">
<ele>218.000000</ele>
<time>2010-01-01T01:45:34.000Z</time>
</trkpt>
<trkpt lat="31.7955900" lon="34.9727100">
<ele>216.000000</ele>
<time>2010-01-01T01:45:46.000Z</time>
</trkpt>
<trkpt lat="31.7955700" lon="34.9731500">
<ele>213.000000</ele>
<time>2010-01-01T01:46:01.000Z</time>
</trkpt>
<trkpt lat="31.7955100" lon="34.9739600">
<ele>212.000015</ele>
<time>2010-01-01T01:46:29.000Z</time>
</trkpt>
<trkpt lat="31.7954200" lon="34.9745500">
<ele>215.000000</ele>
<time>2010-01-01T01:46:49.000Z</time>
</trkpt>
<trkpt lat="31.7952500" lon="34.9751600">
<ele>218.000000</ele>
<time>2010-01-01T01:47:11.000Z</time>
</trkpt>
<trkpt lat="31.7953100" lon="34.9753200">
<ele>217.000000</ele>
<time>2010-01-01T01:47:18.000Z</time>
</trkpt>
<trkpt lat="31.7953400" lon="34.9753800">
<ele>217.000000</ele>
<time>2010-01-01T01:47:20.000Z</time>
</trkpt>
<trkpt lat="31.7953000" lon="34.9754300">
<ele>217.000000</ele>
<time>2010-01-01T01:47:22.000Z</time>
</trkpt>
<trkpt lat="31.7950100" lon="34.9759000">
<ele>221.000000</ele>
<time>2010-01-01T01:47:42.000Z</time>
</trkpt>
<trkpt lat="31.7948000" lon="34.9762400">
<ele>223.000000</ele>
<time>2010-01-01T01:47:58.000Z</time>
</trkpt>
<trkpt lat="31.7951900" lon="34.9765300">
<ele>217.000000</ele>
<time>2010-01-01T01:48:17.000Z</time>
</trkpt>
<trkpt lat="31.7953000" lon="34.9766600">
<ele>216.000000</ele>
<time>2010-01-01T01:48:23.000Z</time>
</trkpt>
<trkpt lat="31.7952900" lon="34.9770000">
<ele>219.000015</ele>
<time>2010-01-01T01:48:35.000Z</time>
</trkpt>
<trkpt lat="31.7955400" lon="34.9771500">
<ele>220.000000</ele>
<time>2010-01-01T01:48:46.000Z</time>
</trkpt>
<trkpt lat="31.7957900" lon="34.9773000">
<ele>223.000000</ele>
<time>2010-01-01T01:48:57.000Z</time>
</trkpt>
<trkpt lat="31.7959300" lon="34.9773400">
<ele>225.000000</ele>
<time>2010-01-01T01:49:03.000Z</time>
</trkpt>
<trkpt lat="31.7960800" lon="34.9773100">
<ele>225.999985</ele>
<time>2010-01-01T01:49:09.000Z</time>
</trkpt>
<trkpt lat="31.7961900" lon="34.9772500">
<ele>227.000000</ele>
<time>2010-01-01T01:49:14.000Z</time>
</trkpt>
<trkpt lat="31.7963200" lon="34.9771400">
<ele>229.000000</ele>
<time>2010-01-01T01:49:20.000Z</time>
</trkpt>
<trkpt lat="31.7971100" lon="34.9763500">
<ele>232.000000</ele>
<time>2010-01-01T01:50:02.000Z</time>
</trkpt>
<trkpt lat="31.7974800" lon="34.9760100">
<ele>232.000000</ele>
<time>2010-01-01T01:50:21.000Z</time>
</trkpt>
<trkpt lat="31.7978200" lon="34.9758400">
<ele>234.000000</ele>
<time>2010-01-01T01:50:35.000Z</time>
</trkpt>
<trkpt lat="31.7979300" lon="34.9758100">
<ele>234.000000</ele>
<time>2010-01-01T01:50:40.000Z</time>
</trkpt>
<trkpt lat="31.7981800" lon="34.9757900">
<ele>234.000000</ele>
<time>2010-01-01T01:50:50.000Z</time>
</trkpt>
<trkpt lat="31.7983200" lon="34.9758100">
<ele>232.999985</ele>
<time>2010-01-01T01:50:56.000Z</time>
</trkpt>
<trkpt lat="31.7984300" lon="34.9758500">
<ele>232.999985</ele>
<time>2010-01-01T01:51:00.000Z</time>
</trkpt>
<trkpt lat="31.7986100" lon="34.9759500">
<ele>232.999985</ele>
<time>2010-01-01T01:51:08.000Z</time>
</trkpt>
<trkpt lat="31.7988300" lon="34.9761500">
<ele>234.000000</ele>
<time>2010-01-01T01:51:19.000Z</time>
</trkpt>
<trkpt lat="31.7995600" lon="34.9771100">
<ele>235.000000</ele>
<time>2010-01-01T01:52:03.000Z</time>
</trkpt>
<trkpt lat="31.7997200" lon="34.9773000">
<ele>236.000000</ele>
<time>2010-01-01T01:52:12.000Z</time>
</trkpt>
<trkpt lat="31.7998600" lon="34.9774300">
<ele>235.000000</ele>
<time>2010-01-01T01:52:19.000Z</time>
</trkpt>
<trkpt lat="31.7999400" lon="34.9774800">
<ele>235.000000</ele>
<time>2010-01-01T01:52:23.000Z</time>
</trkpt>
<trkpt lat="31.8002700" lon="34.9774900">
<ele>232.999985</ele>
<time>2010-01-01T01:52:36.000Z</time>
</trkpt>
<trkpt lat="31.8003700" lon="34.9774700">
<ele>232.999985</ele>
<time>2010-01-01T01:52:40.000Z</time>
</trkpt>
<trkpt lat="31.8004200" lon="34.9774200">
<ele>232.999985</ele>
<time>2010-01-01T01:52:43.000Z</time>
</trkpt>
<trkpt lat="31.8005900" lon="34.9781800">
<ele>236.000000</ele>
<time>2010-01-01T01:53:10.000Z</time>
</trkpt>
<trkpt lat="31.8005400" lon="34.9783700">
<ele>237.000015</ele>
<time>2010-01-01T01:53:16.000Z</time>
</trkpt>
<trkpt lat="31.8001300" lon="34.9789600">
<ele>242.000000</ele>
<time>2010-01-01T01:53:42.000Z</time>
</trkpt>
<trkpt lat="31.8000100" lon="34.9791700">
<ele>243.000000</ele>
<time>2010-01-01T01:53:51.000Z</time>
</trkpt>
<trkpt lat="31.7999800" lon="34.9793400">
<ele>244.000015</ele>
<time>2010-01-01T01:53:57.000Z</time>
</trkpt>
<trkpt lat="31.7998900" lon="34.9796100">
<ele>246.000000</ele>
<time>2010-01-01T01:54:07.000Z</time>
</trkpt>
<trkpt lat="31.7998800" lon="34.9797800">
<ele>247.000000</ele>
<time>2010-01-01T01:54:13.000Z</time>
</trkpt>
<trkpt lat="31.7999800" lon="34.9801400">
<ele>247.000000</ele>
<time>2010-01-01T01:54:25.000Z</time>
</trkpt>
<trkpt lat="31.8001100" lon="34.9804400">
<ele>248.000000</ele>
<time>2010-01-01T01:54:37.000Z</time>
</trkpt>
<trkpt lat="31.8002500" lon="34.9806900">
<ele>248.000000</ele>
<time>2010-01-01T01:54:47.000Z</time>
</trkpt>
<trkpt lat="31.8002700" lon="34.9808200">
<ele>249.000000</ele>
<time>2010-01-01T01:54:52.000Z</time>
</trkpt>
<trkpt lat="31.8003600" lon="34.9810500">
<ele>250.000000</ele>
<time>2010-01-01T01:55:00.000Z</time>
</trkpt>
<trkpt lat="31.8006800" lon="34.9816100">
<ele>252.000000</ele>
<time>2010-01-01T01:55:23.000Z</time>
</trkpt>
<trkpt lat="31.8007000" lon="34.9817000">
<ele>252.000000</ele>
<time>2010-01-01T01:55:26.000Z</time>
</trkpt>
<trkpt lat="31.8007200" lon="34.9819900">
<ele>254.000000</ele>
<time>2010-01-01T01:55:36.000Z</time>
</trkpt>
<trkpt lat="31.8007000" lon="34.9822000">
<ele>256.000000</ele>
<time>2010-01-01T01:55:43.000Z</time>
</trkpt>
<trkpt lat="31.8006800" lon="34.9826400">
<ele>256.000000</ele>
<time>2010-01-01T01:56:00.000Z</time>
</trkpt>
<trkpt lat="31.8009100" lon="34.9826800">
<ele>253.000000</ele>
<time>2010-01-01T01:56:10.000Z</time>
</trkpt>
<trkpt lat="31.8011600" lon="34.9826300">
<ele>254.000000</ele>
<time>2010-01-01T01:56:20.000Z</time>
</trkpt>
<trkpt lat="31.8014900" lon="34.9826200">
<ele>258.000000</ele>
<time>2010-01-01T01:56:33.000Z</time>
</trkpt>
<trkpt lat="31.8017500" lon="34.9825800">
<ele>259.000000</ele>
<time>2010-01-01T01:56:44.000Z</time>
</trkpt>
<trkpt lat="31.8019300" lon="34.9826000">
<ele>259.000000</ele>
<time>2010-01-01T01:56:51.000Z</time>
</trkpt>
<trkpt lat="31.8021500" lon="34.9826000">
<ele>260.000000</ele>
<time>2010-01-01T01:57:00.000Z</time>
</trkpt>
<trkpt lat="31.8022500" lon="34.9825500">
<ele>261.000000</ele>
<time>2010-01-01T01:57:04.000Z</time>
</trkpt>
<trkpt lat="31.8023400" lon="34.9824100">
<ele>263.000000</ele>
<time>2010-01-01T01:57:10.000Z</time>
</trkpt>
<trkpt lat="31.8023800" lon="34.9822500">
<ele>264.000000</ele>
<time>2010-01-01T01:57:16.000Z</time>
</trkpt>
<trkpt lat="31.8023800" lon="34.9817300">
<ele>264.000000</ele>
<time>2010-01-01T01:57:33.000Z</time>
</trkpt>
<trkpt lat="31.8024000" lon="34.9813400">
<ele>263.000000</ele>
<time>2010-01-01T01:57:47.000Z</time>
</trkpt>
<trkpt lat="31.8025300" lon="34.9809100">
<ele>264.000000</ele>
<time>2010-01-01T01:58:02.000Z</time>
</trkpt>
<trkpt lat="31.8026100" lon="34.9807600">
<ele>265.000000</ele>
<time>2010-01-01T01:58:08.000Z</time>
</trkpt>
<trkpt lat="31.8027100" lon="34.9807100">
<ele>266.000000</ele>
<time>2010-01-01T01:58:13.000Z</time>
</trkpt>
<trkpt lat="31.8028500" lon="34.9807400">
<ele>269.000000</ele>
<time>2010-01-01T01:58:18.000Z</time>
</trkpt>
<trkpt lat="31.8031000" lon="34.9807300">
<ele>273.000000</ele>
<time>2010-01-01T01:58:28.000Z</time>
</trkpt>
<trkpt lat="31.8032000" lon="34.9807700">
<ele>275.000000</ele>
<time>2010-01-01T01:58:32.000Z</time>
</trkpt>
<trkpt lat="31.8032900" lon="34.9808400">
<ele>277.000000</ele>
<time>2010-01-01T01:58:37.000Z</time>
</trkpt>
<trkpt lat="31.8035600" lon="34.9811800">
<ele>283.000000</ele>
<time>2010-01-01T01:58:53.000Z</time>
</trkpt>
<trkpt lat="31.8036100" lon="34.9812900">
<ele>284.000000</ele>
<time>2010-01-01T01:58:57.000Z</time>
</trkpt>
<trkpt lat="31.8036700" lon="34.9815400">
<ele>287.000000</ele>
<time>2010-01-01T01:59:06.000Z</time>
</trkpt>
<trkpt lat="31.8037600" lon="34.9816700">
<ele>289.000000</ele>
<time>2010-01-01T01:59:11.000Z</time>
</trkpt>
<trkpt lat="31.8039400" lon="34.9818100">
<ele>290.000000</ele>
<time>2010-01-01T01:59:20.000Z</time>
</trkpt>
<trkpt lat="31.8042600" lon="34.9820100">
<ele>290.000000</ele>
<time>2010-01-01T01:59:35.000Z</time>
</trkpt>
<trkpt lat="31.8043700" lon="34.9820400">
<ele>290.000000</ele>
<time>2010-01-01T01:59:39.000Z</time>
</trkpt>
<trkpt lat="31.8045600" lon="34.9821700">
<ele>290.000000</ele>
<time>2010-01-01T01:59:48.000Z</time>
</trkpt>
<trkpt lat="31.8045500" lon="34.9821800">
<ele>291.000000</ele>
<time>2010-01-01T01:59:48.000Z</time>
</trkpt>
<trkpt lat="31.8046100" lon="34.9823700">
<ele>293.000000</ele>
<time>2010-01-01T01:59:55.000Z</time>
</trkpt>
<trkpt lat="31.8046100" lon="34.9825400">
<ele>296.000000</ele>
<time>2010-01-01T02:00:01.000Z</time>
</trkpt>
<trkpt lat="31.8046000" lon="34.9826300">
<ele>297.000000</ele>
<time>2010-01-01T02:00:04.000Z</time>
</trkpt>
<trkpt lat="31.8045800" lon="34.9827100">
<ele>298.000000</ele>
<time>2010-01-01T02:00:07.000Z</time>
</trkpt>
<trkpt lat="31.8044100" lon="34.9830400">
<ele>301.000000</ele>
<time>2010-01-01T02:00:20.000Z</time>
</trkpt>
<trkpt lat="31.8043800" lon="34.9832000">
<ele>303.000000</ele>
<time>2010-01-01T02:00:26.000Z</time>
</trkpt>
<trkpt lat="31.8043500" lon="34.9832700">
<ele>303.000000</ele>
<time>2010-01-01T02:00:28.000Z</time>
</trkpt>
<trkpt lat="31.8042500" lon="34.9836800">
<ele>308.000000</ele>
<time>2010-01-01T02:00:43.000Z</time>
</trkpt>
<trkpt lat="31.8041700" lon="34.9839200">
<ele>311.000000</ele>
<time>2010-01-01T02:00:52.000Z</time>
</trkpt>
<trkpt lat="31.8039900" lon="34.9842900">
<ele>316.000000</ele>
<time>2010-01-01T02:01:06.000Z</time>
</trkpt>
<trkpt lat="31.8037200" lon="34.9847900">
<ele>323.000000</ele>
<time>2010-01-01T02:01:26.000Z</time>
</trkpt>
<trkpt lat="31.8035700" lon="34.9849500">
<ele>323.999969</ele>
<time>2010-01-01T02:01:34.000Z</time>
</trkpt>
<trkpt lat="31.8038100" lon="34.9855500">
<ele>336.000000</ele>
<time>2010-01-01T02:01:57.000Z</time>
</trkpt>
<trkpt lat="31.8039500" lon="34.9858200">
<ele>337.999969</ele>
<time>2010-01-01T02:02:08.000Z</time>
</trkpt>
<trkpt lat="31.8041000" lon="34.9862500">
<ele>337.999969</ele>
<time>2010-01-01T02:02:24.000Z</time>
</trkpt>
<trkpt lat="31.8040300" lon="34.9863900">
<ele>337.999969</ele>
<time>2010-01-01T02:02:29.000Z</time>
</trkpt>
<trkpt lat="31.8039400" lon="34.9866200">
<ele>336.000000</ele>
<time>2010-01-01T02:02:38.000Z</time>
</trkpt>
<trkpt lat="31.8038600" lon="34.9867600">
<ele>335.000031</ele>
<time>2010-01-01T02:02:43.000Z</time>
</trkpt>
<trkpt lat="31.8035400" lon="34.9871600">
<ele>333.000000</ele>
<time>2010-01-01T02:03:02.000Z</time>
</trkpt>
<trkpt lat="31.8034500" lon="34.9872400">
<ele>332.000000</ele>
<time>2010-01-01T02:03:07.000Z</time>
</trkpt>
<trkpt lat="31.8033600" lon="34.9873800">
<ele>333.000000</ele>
<time>2010-01-01T02:03:13.000Z</time>
</trkpt>
<trkpt lat="31.8033600" lon="34.9873800">
<ele>333.000000</ele>
<time>2010-01-01T02:03:43.000Z</time>
</trkpt>
<trkpt lat="31.8031181" lon="34.9876784">
<ele>329.000000</ele>
<time>2010-01-01T02:03:59.000Z</time>
</trkpt>
<trkpt lat="31.8030634" lon="34.9877428">
<ele>332.000000</ele>
<time>2010-01-01T02:04:04.000Z</time>
</trkpt>
<trkpt lat="31.8029800" lon="34.9878400">
<ele>335.000031</ele>
<time>2010-01-01T02:04:07.000Z</time>
</trkpt>
<trkpt lat="31.8029200" lon="34.9878900">
<ele>336.000000</ele>
<time>2010-01-01T02:04:10.000Z</time>
</trkpt>
<trkpt lat="31.8027800" lon="34.9879300">
<ele>336.000000</ele>
<time>2010-01-01T02:04:16.000Z</time>
</trkpt>
<trkpt lat="31.8026200" lon="34.9880300">
<ele>335.000031</ele>
<time>2010-01-01T02:04:23.000Z</time>
</trkpt>
<trkpt lat="31.8024600" lon="34.9883600">
<ele>340.000000</ele>
<time>2010-01-01T02:04:36.000Z</time>
</trkpt>
<trkpt lat="31.8022900" lon="34.9887900">
<ele>344.000000</ele>
<time>2010-01-01T02:04:52.000Z</time>
</trkpt>
<trkpt lat="31.8021200" lon="34.9890100">
<ele>345.000000</ele>
<time>2010-01-01T02:05:03.000Z</time>
</trkpt>
<trkpt lat="31.8020300" lon="34.9890700">
<ele>346.000031</ele>
<time>2010-01-01T02:05:07.000Z</time>
</trkpt>
<trkpt lat="31.8019400" lon="34.9892100">
<ele>347.000000</ele>
<time>2010-01-01T02:05:13.000Z</time>
</trkpt>
<trkpt lat="31.8018900" lon="34.9893300">
<ele>350.000000</ele>
<time>2010-01-01T02:05:17.000Z</time>
</trkpt>
<trkpt lat="31.8017700" lon="34.9895500">
<ele>351.999969</ele>
<time>2010-01-01T02:05:26.000Z</time>
</trkpt>
<trkpt lat="31.8017400" lon="34.9896500">
<ele>353.000000</ele>
<time>2010-01-01T02:05:30.000Z</time>
</trkpt>
<trkpt lat="31.8017300" lon="34.9897600">
<ele>353.000000</ele>
<time>2010-01-01T02:05:33.000Z</time>
</trkpt>
<trkpt lat="31.8017700" lon="34.9900000">
<ele>353.000000</ele>
<time>2010-01-01T02:05:42.000Z</time>
</trkpt>
<trkpt lat="31.8018100" lon="34.9901600">
<ele>351.000000</ele>
<time>2010-01-01T02:05:47.000Z</time>
</trkpt>
<trkpt lat="31.8019800" lon="34.9901800">
<ele>351.000000</ele>
<time>2010-01-01T02:05:54.000Z</time>
</trkpt>
<trkpt lat="31.8021700" lon="34.9903000">
<ele>351.000000</ele>
<time>2010-01-01T02:06:03.000Z</time>
</trkpt>
<trkpt lat="31.8024800" lon="34.9906700">
<ele>351.000000</ele>
<time>2010-01-01T02:06:21.000Z</time>
</trkpt>
<trkpt lat="31.8026600" lon="34.9909400">
<ele>349.000031</ele>
<time>2010-01-01T02:06:32.000Z</time>
</trkpt>
<trkpt lat="31.8027800" lon="34.9913400">
<ele>348.000000</ele>
<time>2010-01-01T02:06:47.000Z</time>
</trkpt>
<trkpt lat="31.8028200" lon="34.9918100">
<ele>348.000000</ele>
<time>2010-01-01T02:07:03.000Z</time>
</trkpt>
<trkpt lat="31.8028400" lon="34.9918900">
<ele>348.000000</ele>
<time>2010-01-01T02:07:06.000Z</time>
</trkpt>
<trkpt lat="31.8028800" lon="34.9919600">
<ele>349.000031</ele>
<time>2010-01-01T02:07:08.000Z</time>
</trkpt>
<trkpt lat="31.8029400" lon="34.9920000">
<ele>351.000000</ele>
<time>2010-01-01T02:07:11.000Z</time>
</trkpt>
<trkpt lat="31.8031900" lon="34.9920700">
<ele>356.000000</ele>
<time>2010-01-01T02:07:22.000Z</time>
</trkpt>
<trkpt lat="31.8032600" lon="34.9921100">
<ele>357.000000</ele>
<time>2010-01-01T02:07:25.000Z</time>
</trkpt>
<trkpt lat="31.8034200" lon="34.9921500">
<ele>359.000000</ele>
<time>2010-01-01T02:07:31.000Z</time>
</trkpt>
<trkpt lat="31.8034300" lon="34.9921500">
<ele>359.000000</ele>
<time>2010-01-01T02:07:32.000Z</time>
</trkpt>
<trkpt lat="31.8036700" lon="34.9924500">
<ele>362.000000</ele>
<time>2010-01-01T02:07:46.000Z</time>
</trkpt>
<trkpt lat="31.8037800" lon="34.9926700">
<ele>365.000000</ele>
<time>2010-01-01T02:07:54.000Z</time>
</trkpt>
<trkpt lat="31.8038200" lon="34.9935900">
<ele>360.000031</ele>
<time>2010-01-01T02:08:26.000Z</time>
</trkpt>
<trkpt lat="31.8037500" lon="34.9941300">
<ele>357.000000</ele>
<time>2010-01-01T02:08:44.000Z</time>
</trkpt>
<trkpt lat="31.8038000" lon="34.9942500">
<ele>356.000000</ele>
<time>2010-01-01T02:08:49.000Z</time>
</trkpt>
<trkpt lat="31.8037400" lon="34.9943600">
<ele>356.000000</ele>
<time>2010-01-01T02:08:53.000Z</time>
</trkpt>
<trkpt lat="31.8037400" lon="34.9943700">
<ele>356.000000</ele>
<time>2010-01-01T02:08:54.000Z</time>
</trkpt>
<trkpt lat="31.8038200" lon="34.9944900">
<ele>356.000000</ele>
<time>2010-01-01T02:08:59.000Z</time>
</trkpt>
<trkpt lat="31.8039100" lon="34.9945400">
<ele>355.000000</ele>
<time>2010-01-01T02:09:03.000Z</time>
</trkpt>
<trkpt lat="31.8042000" lon="34.9945900">
<ele>353.000000</ele>
<time>2010-01-01T02:09:14.000Z</time>
</trkpt>
<trkpt lat="31.8043800" lon="34.9945900">
<ele>351.999969</ele>
<time>2010-01-01T02:09:22.000Z</time>
</trkpt>
<trkpt lat="31.8044500" lon="34.9945800">
<ele>351.999969</ele>
<time>2010-01-01T02:09:24.000Z</time>
</trkpt>
<trkpt lat="31.8047300" lon="34.9943900">
<ele>351.000000</ele>
<time>2010-01-01T02:09:37.000Z</time>
</trkpt>
<trkpt lat="31.8048700" lon="34.9943300">
<ele>351.000000</ele>
<time>2010-01-01T02:09:43.000Z</time>
</trkpt>
<trkpt lat="31.8050000" lon="34.9943900">
<ele>349.000031</ele>
<time>2010-01-01T02:09:49.000Z</time>
</trkpt>
<trkpt lat="31.8051100" lon="34.9945100">
<ele>346.000031</ele>
<time>2010-01-01T02:09:55.000Z</time>
</trkpt>
<trkpt lat="31.8051500" lon="34.9945800">
<ele>345.000000</ele>
<time>2010-01-01T02:09:58.000Z</time>
</trkpt>
<trkpt lat="31.8052200" lon="34.9948600">
<ele>339.000000</ele>
<time>2010-01-01T02:10:08.000Z</time>
</trkpt>
<trkpt lat="31.8053400" lon="34.9949500">
<ele>336.000000</ele>
<time>2010-01-01T02:10:13.000Z</time>
</trkpt>
<trkpt lat="31.8055200" lon="34.9949900">
<ele>335.000031</ele>
<time>2010-01-01T02:10:21.000Z</time>
</trkpt>
<trkpt lat="31.8056300" lon="34.9950900">
<ele>332.000000</ele>
<time>2010-01-01T02:10:26.000Z</time>
</trkpt>
<trkpt lat="31.8056900" lon="34.9951200">
<ele>330.000000</ele>
<time>2010-01-01T02:10:29.000Z</time>
</trkpt>
<trkpt lat="31.8057400" lon="34.9951900">
<ele>328.000000</ele>
<time>2010-01-01T02:10:32.000Z</time>
</trkpt>
<trkpt lat="31.8058100" lon="34.9952100">
<ele>326.999969</ele>
<time>2010-01-01T02:10:35.000Z</time>
</trkpt>
<trkpt lat="31.8059500" lon="34.9952100">
<ele>326.000000</ele>
<time>2010-01-01T02:10:41.000Z</time>
</trkpt>
<trkpt lat="31.8062400" lon="34.9951600">
<ele>323.000000</ele>
<time>2010-01-01T02:10:52.000Z</time>
</trkpt>
<trkpt lat="31.8064200" lon="34.9950300">
<ele>323.000000</ele>
<time>2010-01-01T02:11:01.000Z</time>
</trkpt>
<trkpt lat="31.8065600" lon="34.9948900">
<ele>322.000000</ele>
<time>2010-01-01T02:11:08.000Z</time>
</trkpt>
<trkpt lat="31.8066000" lon="34.9948200">
<ele>322.000000</ele>
<time>2010-01-01T02:11:11.000Z</time>
</trkpt>
<trkpt lat="31.8066900" lon="34.9945500">
<ele>322.000000</ele>
<time>2010-01-01T02:11:21.000Z</time>
</trkpt>
<trkpt lat="31.8067100" lon="34.9942900">
<ele>323.999969</ele>
<time>2010-01-01T02:11:30.000Z</time>
</trkpt>
<trkpt lat="31.8066400" lon="34.9941900">
<ele>326.999969</ele>
<time>2010-01-01T02:11:34.000Z</time>
</trkpt>
<trkpt lat="31.8066200" lon="34.9940700">
<ele>328.000000</ele>
<time>2010-01-01T02:11:38.000Z</time>
</trkpt>
<trkpt lat="31.8065700" lon="34.9939500">
<ele>329.000000</ele>
<time>2010-01-01T02:11:43.000Z</time>
</trkpt>
<trkpt lat="31.8065100" lon="34.9937100">
<ele>330.000000</ele>
<time>2010-01-01T02:11:51.000Z</time>
</trkpt>
<trkpt lat="31.8065000" lon="34.9935800">
<ele>329.000000</ele>
<time>2010-01-01T02:11:56.000Z</time>
</trkpt>
<trkpt lat="31.8065600" lon="34.9932100">
<ele>329.000000</ele>
<time>2010-01-01T02:12:09.000Z</time>
</trkpt>
<trkpt lat="31.8066300" lon="34.9930700">
<ele>329.000000</ele>
<time>2010-01-01T02:12:14.000Z</time>
</trkpt>
<trkpt lat="31.8066800" lon="34.9930000">
<ele>329.000000</ele>
<time>2010-01-01T02:12:17.000Z</time>
</trkpt>
<trkpt lat="31.8067400" lon="34.9929600">
<ele>329.000000</ele>
<time>2010-01-01T02:12:20.000Z</time>
</trkpt>
<trkpt lat="31.8068100" lon="34.9929800">
<ele>326.999969</ele>
<time>2010-01-01T02:12:23.000Z</time>
</trkpt>
<trkpt lat="31.8069000" lon="34.9930500">
<ele>323.999969</ele>
<time>2010-01-01T02:12:27.000Z</time>
</trkpt>
<trkpt lat="31.8070800" lon="34.9934200">
<ele>315.000000</ele>
<time>2010-01-01T02:12:42.000Z</time>
</trkpt>
<trkpt lat="31.8071925" lon="34.9936276">
<ele>308.000000</ele>
<time>2010-01-01T02:12:50.000Z</time>
</trkpt>
<trkpt lat="31.8072791" lon="34.9936919">
<ele>306.000000</ele>
<time>2010-01-01T02:12:55.000Z</time>
</trkpt>
<trkpt lat="31.8073931" lon="34.9938207">
<ele>303.000000</ele>
<time>2010-01-01T02:13:00.000Z</time>
</trkpt>
<trkpt lat="31.8074843" lon="34.9939065">
<ele>299.000000</ele>
<time>2010-01-01T02:13:06.000Z</time>
</trkpt>
<trkpt lat="31.8076074" lon="34.9940406">
<ele>298.000000</ele>
<time>2010-01-01T02:13:12.000Z</time>
</trkpt>
<trkpt lat="31.8077715" lon="34.9941694">
<ele>300.000000</ele>
<time>2010-01-01T02:13:22.000Z</time>
</trkpt>
<trkpt lat="31.8079128" lon="34.9942767">
<ele>297.000000</ele>
<time>2010-01-01T02:13:36.000Z</time>
</trkpt>
<trkpt lat="31.8079800" lon="34.9943300">
<ele>295.000000</ele>
<time>2010-01-01T02:13:40.000Z</time>
</trkpt>
<trkpt lat="31.8080100" lon="34.9943900">
<ele>295.000000</ele>
<time>2010-01-01T02:13:43.000Z</time>
</trkpt>
<trkpt lat="31.8080100" lon="34.9943900">
<ele>295.000000</ele>
<time>2010-01-01T02:13:46.000Z</time>
</trkpt>
<trkpt lat="31.8081400" lon="34.9944700">
<ele>294.000000</ele>
<time>2010-01-01T02:13:52.000Z</time>
</trkpt>
<trkpt lat="31.8087700" lon="34.9949600">
<ele>290.000000</ele>
<time>2010-01-01T02:14:22.000Z</time>
</trkpt>
<trkpt lat="31.8089000" lon="34.9950200">
<ele>291.000000</ele>
<time>2010-01-01T02:14:27.000Z</time>
</trkpt>
<trkpt lat="31.8098700" lon="34.9950200">
<ele>287.000000</ele>
<time>2010-01-01T02:15:06.000Z</time>
</trkpt>
<trkpt lat="31.8099917" lon="34.9950330">
<ele>285.000000</ele>
<time>2010-01-01T02:15:11.000Z</time>
</trkpt>
<trkpt lat="31.8104100" lon="34.9949700">
<ele>275.000000</ele>
<time>2010-01-01T02:15:28.000Z</time>
</trkpt>
<trkpt lat="31.8105800" lon="34.9949600">
<ele>272.000000</ele>
<time>2010-01-01T02:15:39.000Z</time>
</trkpt>
<trkpt lat="31.8106600" lon="34.9950500">
<ele>272.000000</ele>
<time>2010-01-01T02:15:43.000Z</time>
</trkpt>
<trkpt lat="31.8107400" lon="34.9950900">
<ele>273.000000</ele>
<time>2010-01-01T02:15:47.000Z</time>
</trkpt>
<trkpt lat="31.8109600" lon="34.9951600">
<ele>274.000000</ele>
<time>2010-01-01T02:15:56.000Z</time>
</trkpt>
<trkpt lat="31.8112100" lon="34.9951900">
<ele>276.000000</ele>
<time>2010-01-01T02:16:06.000Z</time>
</trkpt>
<trkpt lat="31.8114000" lon="34.9952500">
<ele>277.000000</ele>
<time>2010-01-01T02:16:14.000Z</time>
</trkpt>
<trkpt lat="31.8116100" lon="34.9952800">
<ele>278.000000</ele>
<time>2010-01-01T02:16:22.000Z</time>
</trkpt>
<trkpt lat="31.8118000" lon="34.9953500">
<ele>278.000000</ele>
<time>2010-01-01T02:16:30.000Z</time>
</trkpt>
<trkpt lat="31.8120900" lon="34.9955100">
<ele>280.000000</ele>
<time>2010-01-01T02:16:43.000Z</time>
</trkpt>
<trkpt lat="31.8124500" lon="34.9958100">
<ele>285.000000</ele>
<time>2010-01-01T02:17:01.000Z</time>
</trkpt>
<trkpt lat="31.8129900" lon="34.9963400">
<ele>287.000000</ele>
<time>2010-01-01T02:17:29.000Z</time>
</trkpt>
<trkpt lat="31.8131200" lon="34.9964900">
<ele>290.000000</ele>
<time>2010-01-01T02:17:36.000Z</time>
</trkpt>
<trkpt lat="31.8131700" lon="34.9966000">
<ele>291.000000</ele>
<time>2010-01-01T02:17:40.000Z</time>
</trkpt>
<trkpt lat="31.8131800" lon="34.9967700">
<ele>293.000000</ele>
<time>2010-01-01T02:17:46.000Z</time>
</trkpt>
<trkpt lat="31.8131700" lon="34.9968700">
<ele>294.000000</ele>
<time>2010-01-01T02:17:50.000Z</time>
</trkpt>
<trkpt lat="31.8130700" lon="34.9971200">
<ele>294.000000</ele>
<time>2010-01-01T02:17:59.000Z</time>
</trkpt>
<trkpt lat="31.8128900" lon="34.9973600">
<ele>295.000000</ele>
<time>2010-01-01T02:18:10.000Z</time>
</trkpt>
<trkpt lat="31.8127500" lon="34.9974900">
<ele>297.000000</ele>
<time>2010-01-01T02:18:17.000Z</time>
</trkpt>
<trkpt lat="31.8126100" lon="34.9976000">
<ele>298.000000</ele>
<time>2010-01-01T02:18:24.000Z</time>
</trkpt>
<trkpt lat="31.8123700" lon="34.9977500">
<ele>302.000000</ele>
<time>2010-01-01T02:18:35.000Z</time>
</trkpt>
<trkpt lat="31.8123300" lon="34.9978000">
<ele>303.000000</ele>
<time>2010-01-01T02:18:37.000Z</time>
</trkpt>
<trkpt lat="31.8118900" lon="34.9984100">
<ele>298.000000</ele>
<time>2010-01-01T02:19:04.000Z</time>
</trkpt>
<trkpt lat="31.8113400" lon="34.9989500">
<ele>297.000000</ele>
<time>2010-01-01T02:19:33.000Z</time>
</trkpt>
<trkpt lat="31.8109600" lon="34.9990600">
<ele>300.000000</ele>
<time>2010-01-01T02:19:49.000Z</time>
</trkpt>
<trkpt lat="31.8108000" lon="34.9991800">
<ele>300.000000</ele>
<time>2010-01-01T02:19:56.000Z</time>
</trkpt>
<trkpt lat="31.8106500" lon="34.9993300">
<ele>301.000000</ele>
<time>2010-01-01T02:20:04.000Z</time>
</trkpt>
<trkpt lat="31.8103500" lon="34.9998500">
<ele>300.000000</ele>
<time>2010-01-01T02:20:25.000Z</time>
</trkpt>
<trkpt lat="31.8099700" lon="35.0008900">
<ele>295.000000</ele>
<time>2010-01-01T02:21:04.000Z</time>
</trkpt>
<trkpt lat="31.8097800" lon="35.0013400">
<ele>296.000000</ele>
<time>2010-01-01T02:21:21.000Z</time>
</trkpt>
<trkpt lat="31.8094700" lon="35.0015800">
<ele>295.000000</ele>
<time>2010-01-01T02:21:36.000Z</time>
</trkpt>
<trkpt lat="31.8089000" lon="35.0017300">
<ele>297.000000</ele>
<time>2010-01-01T02:21:59.000Z</time>
</trkpt>
<trkpt lat="31.8086500" lon="35.0019400">
<ele>298.000000</ele>
<time>2010-01-01T02:22:12.000Z</time>
</trkpt>
<trkpt lat="31.8082700" lon="35.0027400">
<ele>287.000000</ele>
<time>2010-01-01T02:22:43.000Z</time>
</trkpt>
<trkpt lat="31.8076300" lon="35.0028800">
<ele>288.000000</ele>
<time>2010-01-01T02:23:09.000Z</time>
</trkpt>
<trkpt lat="31.8075500" lon="35.0029900">
<ele>287.000000</ele>
<time>2010-01-01T02:23:14.000Z</time>
</trkpt>
<trkpt lat="31.8075500" lon="35.0033500">
<ele>281.000000</ele>
<time>2010-01-01T02:23:26.000Z</time>
</trkpt>
<trkpt lat="31.8074800" lon="35.0035400">
<ele>280.000000</ele>
<time>2010-01-01T02:23:33.000Z</time>
</trkpt>
<trkpt lat="31.8073500" lon="35.0037400">
<ele>278.000000</ele>
<time>2010-01-01T02:23:42.000Z</time>
</trkpt>
<trkpt lat="31.8072100" lon="35.0038800">
<ele>278.000000</ele>
<time>2010-01-01T02:23:49.000Z</time>
</trkpt>
<trkpt lat="31.8070400" lon="35.0040200">
<ele>278.000000</ele>
<time>2010-01-01T02:23:57.000Z</time>
</trkpt>
<trkpt lat="31.8069600" lon="35.0041100">
<ele>277.000000</ele>
<time>2010-01-01T02:24:02.000Z</time>
</trkpt>
<trkpt lat="31.8068400" lon="35.0043200">
<ele>276.000000</ele>
<time>2010-01-01T02:24:10.000Z</time>
</trkpt>
<trkpt lat="31.8066500" lon="35.0045000">
<ele>276.000000</ele>
<time>2010-01-01T02:24:20.000Z</time>
</trkpt>
<trkpt lat="31.8066600" lon="35.0045000">
<ele>276.000000</ele>
<time>2010-01-01T02:24:20.000Z</time>
</trkpt>
<trkpt lat="31.8058000" lon="35.0042200">
<ele>287.000000</ele>
<time>2010-01-01T02:24:56.000Z</time>
</trkpt>
<trkpt lat="31.8055800" lon="35.0041900">
<ele>291.000000</ele>
<time>2010-01-01T02:25:05.000Z</time>
</trkpt>
<trkpt lat="31.8051000" lon="35.0043100">
<ele>286.000000</ele>
<time>2010-01-01T02:25:25.000Z</time>
</trkpt>
<trkpt lat="31.8049500" lon="35.0044300">
<ele>283.000000</ele>
<time>2010-01-01T02:25:32.000Z</time>
</trkpt>
<trkpt lat="31.8047700" lon="35.0042500">
<ele>289.000000</ele>
<time>2010-01-01T02:25:41.000Z</time>
</trkpt>
<trkpt lat="31.8045200" lon="35.0041100">
<ele>293.000000</ele>
<time>2010-01-01T02:25:53.000Z</time>
</trkpt>
<trkpt lat="31.8044000" lon="35.0040800">
<ele>293.000000</ele>
<time>2010-01-01T02:25:57.000Z</time>
</trkpt>
<trkpt lat="31.8041100" lon="35.0040700">
<ele>293.000000</ele>
<time>2010-01-01T02:26:09.000Z</time>
</trkpt>
<trkpt lat="31.8038700" lon="35.0040100">
<ele>294.000000</ele>
<time>2010-01-01T02:26:19.000Z</time>
</trkpt>
<trkpt lat="31.8036700" lon="35.0039000">
<ele>296.000000</ele>
<time>2010-01-01T02:26:28.000Z</time>
</trkpt>
<trkpt lat="31.8034500" lon="35.0037000">
<ele>301.000000</ele>
<time>2010-01-01T02:26:39.000Z</time>
</trkpt>
<trkpt lat="31.8034000" lon="35.0037100">
<ele>301.000000</ele>
<time>2010-01-01T02:26:41.000Z</time>
</trkpt>
<trkpt lat="31.8027200" lon="35.0037400">
<ele>306.000000</ele>
<time>2010-01-01T02:27:08.000Z</time>
</trkpt>
<trkpt lat="31.8024400" lon="35.0035600">
<ele>311.000000</ele>
<time>2010-01-01T02:27:21.000Z</time>
</trkpt>
<trkpt lat="31.8018800" lon="35.0034700">
<ele>312.999969</ele>
<time>2010-01-01T02:27:44.000Z</time>
</trkpt>
<trkpt lat="31.8013100" lon="35.0034600">
<ele>314.000000</ele>
<time>2010-01-01T02:28:06.000Z</time>
</trkpt>
<trkpt lat="31.8009600" lon="35.0032500">
<ele>316.000000</ele>
<time>2010-01-01T02:28:22.000Z</time>
</trkpt>
<trkpt lat="31.8007200" lon="35.0029100">
<ele>322.000000</ele>
<time>2010-01-01T02:28:37.000Z</time>
</trkpt>
<trkpt lat="31.8005000" lon="35.0028900">
<ele>323.000000</ele>
<time>2010-01-01T02:28:46.000Z</time>
</trkpt>
<trkpt lat="31.7997100" lon="35.0031100">
<ele>331.000000</ele>
<time>2010-01-01T02:29:18.000Z</time>
</trkpt>
<trkpt lat="31.7995100" lon="35.0030900">
<ele>334.000000</ele>
<time>2010-01-01T02:29:26.000Z</time>
</trkpt>
<trkpt lat="31.7992400" lon="35.0029900">
<ele>337.999969</ele>
<time>2010-01-01T02:29:38.000Z</time>
</trkpt>
<trkpt lat="31.7989900" lon="35.0030000">
<ele>337.000000</ele>
<time>2010-01-01T02:29:48.000Z</time>
</trkpt>
<trkpt lat="31.7986900" lon="35.0031200">
<ele>336.000000</ele>
<time>2010-01-01T02:30:00.000Z</time>
</trkpt>
<trkpt lat="31.7986100" lon="35.0033800">
<ele>335.000031</ele>
<time>2010-01-01T02:30:10.000Z</time>
</trkpt>
<trkpt lat="31.7986800" lon="35.0035700">
<ele>335.000031</ele>
<time>2010-01-01T02:30:17.000Z</time>
</trkpt>
<trkpt lat="31.7986500" lon="35.0035600">
<ele>335.000031</ele>
<time>2010-01-01T02:30:18.000Z</time>
</trkpt>
<trkpt lat="31.7986600" lon="35.0035600">
<ele>335.000031</ele>
<time>2010-01-01T02:30:19.000Z</time>
</trkpt>
<trkpt lat="31.7977100" lon="35.0034200">
<ele>344.000000</ele>
<time>2010-01-01T02:30:57.000Z</time>
</trkpt>
<trkpt lat="31.7974700" lon="35.0034300">
<ele>348.000000</ele>
<time>2010-01-01T02:31:07.000Z</time>
</trkpt>
<trkpt lat="31.7972200" lon="35.0035900">
<ele>351.999969</ele>
<time>2010-01-01T02:31:18.000Z</time>
</trkpt>
<trkpt lat="31.7969900" lon="35.0036200">
<ele>353.000000</ele>
<time>2010-01-01T02:31:27.000Z</time>
</trkpt>
<trkpt lat="31.7966100" lon="35.0038100">
<ele>357.000000</ele>
<time>2010-01-01T02:31:44.000Z</time>
</trkpt>
<trkpt lat="31.7962400" lon="35.0038300">
<ele>360.000031</ele>
<time>2010-01-01T02:31:59.000Z</time>
</trkpt>
<trkpt lat="31.7956900" lon="35.0037500">
<ele>368.000000</ele>
<time>2010-01-01T02:32:21.000Z</time>
</trkpt>
<trkpt lat="31.7956600" lon="35.0037900">
<ele>368.000000</ele>
<time>2010-01-01T02:32:23.000Z</time>
</trkpt>
<trkpt lat="31.7956000" lon="35.0038600">
<ele>370.000000</ele>
<time>2010-01-01T02:32:26.000Z</time>
</trkpt>
<trkpt lat="31.7956900" lon="35.0041100">
<ele>367.000000</ele>
<time>2010-01-01T02:32:35.000Z</time>
</trkpt>
<trkpt lat="31.7956300" lon="35.0044000">
<ele>367.000000</ele>
<time>2010-01-01T02:32:45.000Z</time>
</trkpt>
<trkpt lat="31.7955700" lon="35.0045600">
<ele>366.000000</ele>
<time>2010-01-01T02:32:51.000Z</time>
</trkpt>
<trkpt lat="31.7955300" lon="35.0048600">
<ele>364.000000</ele>
<time>2010-01-01T02:33:02.000Z</time>
</trkpt>
<trkpt lat="31.7954800" lon="35.0049900">
<ele>364.000000</ele>
<time>2010-01-01T02:33:06.000Z</time>
</trkpt>
<trkpt lat="31.7953300" lon="35.0052200">
<ele>366.000000</ele>
<time>2010-01-01T02:33:16.000Z</time>
</trkpt>
<trkpt lat="31.7950600" lon="35.0054300">
<ele>369.000000</ele>
<time>2010-01-01T02:33:29.000Z</time>
</trkpt>
<trkpt lat="31.7949100" lon="35.0057000">
<ele>369.000000</ele>
<time>2010-01-01T02:33:40.000Z</time>
</trkpt>
<trkpt lat="31.7947400" lon="35.0058800">
<ele>371.000000</ele>
<time>2010-01-01T02:33:49.000Z</time>
</trkpt>
<trkpt lat="31.7939400" lon="35.0062200">
<ele>374.000031</ele>
<time>2010-01-01T02:34:26.000Z</time>
</trkpt>
<trkpt lat="31.7939400" lon="35.0062300">
<ele>374.000031</ele>
<time>2010-01-01T02:34:26.000Z</time>
</trkpt>
<trkpt lat="31.7939100" lon="35.0060600">
<ele>376.000000</ele>
<time>2010-01-01T02:34:32.000Z</time>
</trkpt>
<trkpt lat="31.7939200" lon="35.0059100">
<ele>376.999969</ele>
<time>2010-01-01T02:34:37.000Z</time>
</trkpt>
<trkpt lat="31.7940000" lon="35.0055900">
<ele>379.000000</ele>
<time>2010-01-01T02:34:48.000Z</time>
</trkpt>
<trkpt lat="31.7940000" lon="35.0053900">
<ele>382.000000</ele>
<time>2010-01-01T02:34:55.000Z</time>
</trkpt>
<trkpt lat="31.7938000" lon="35.0051700">
<ele>386.000000</ele>
<time>2010-01-01T02:35:06.000Z</time>
</trkpt>
<trkpt lat="31.7936600" lon="35.0049300">
<ele>389.000000</ele>
<time>2010-01-01T02:35:16.000Z</time>
</trkpt>
<trkpt lat="31.7936800" lon="35.0047000">
<ele>391.000000</ele>
<time>2010-01-01T02:35:24.000Z</time>
</trkpt>
<trkpt lat="31.7938200" lon="35.0046000">
<ele>392.000000</ele>
<time>2010-01-01T02:35:31.000Z</time>
</trkpt>
<trkpt lat="31.7938400" lon="35.0045800">
<ele>392.000000</ele>
<time>2010-01-01T02:35:32.000Z</time>
</trkpt>
<trkpt lat="31.7936300" lon="35.0044000">
<ele>396.000000</ele>
<time>2010-01-01T02:35:42.000Z</time>
</trkpt>
<trkpt lat="31.7936000" lon="35.0044400">
<ele>395.000000</ele>
<time>2010-01-01T02:35:44.000Z</time>
</trkpt>
<trkpt lat="31.7935200" lon="35.0044900">
<ele>394.000000</ele>
<time>2010-01-01T02:35:47.000Z</time>
</trkpt>
<trkpt lat="31.7933700" lon="35.0045500">
<ele>392.000000</ele>
<time>2010-01-01T02:35:54.000Z</time>
</trkpt>
<trkpt lat="31.7931900" lon="35.0045700">
<ele>392.000000</ele>
<time>2010-01-01T02:36:01.000Z</time>
</trkpt>
<trkpt lat="31.7930700" lon="35.0046600">
<ele>392.000000</ele>
<time>2010-01-01T02:36:07.000Z</time>
</trkpt>
<trkpt lat="31.7930700" lon="35.0046500">
<ele>392.000000</ele>
<time>2010-01-01T02:36:07.000Z</time>
</trkpt>
<trkpt lat="31.7931000" lon="35.0039000">
<ele>394.000000</ele>
<time>2010-01-01T02:36:33.000Z</time>
</trkpt>
<trkpt lat="31.7926400" lon="35.0032400">
<ele>390.000000</ele>
<time>2010-01-01T02:37:02.000Z</time>
</trkpt>
<trkpt lat="31.7925400" lon="35.0028500">
<ele>389.000000</ele>
<time>2010-01-01T02:37:16.000Z</time>
</trkpt>
<trkpt lat="31.7920600" lon="35.0020600">
<ele>371.000000</ele>
<time>2010-01-01T02:37:49.000Z</time>
</trkpt>
<trkpt lat="31.7919400" lon="35.0018000">
<ele>367.000000</ele>
<time>2010-01-01T02:37:59.000Z</time>
</trkpt>
<trkpt lat="31.7918500" lon="35.0013200">
<ele>365.000000</ele>
<time>2010-01-01T02:38:15.000Z</time>
</trkpt>
<trkpt lat="31.7916000" lon="35.0005400">
<ele>365.000000</ele>
<time>2010-01-01T02:38:44.000Z</time>
</trkpt>
<trkpt lat="31.7913400" lon="35.0001300">
<ele>362.000000</ele>
<time>2010-01-01T02:39:01.000Z</time>
</trkpt>
<trkpt lat="31.7908600" lon="34.9997700">
<ele>358.000000</ele>
<time>2010-01-01T02:39:24.000Z</time>
</trkpt>
<trkpt lat="31.7906500" lon="34.9996700">
<ele>355.000000</ele>
<time>2010-01-01T02:39:33.000Z</time>
</trkpt>
<trkpt lat="31.7898600" lon="34.9994500">
<ele>342.000000</ele>
<time>2010-01-01T02:40:05.000Z</time>
</trkpt>
<trkpt lat="31.7898700" lon="34.9994500">
<ele>342.000000</ele>
<time>2010-01-01T02:40:06.000Z</time>
</trkpt>
<trkpt lat="31.7898200" lon="34.9994300">
<ele>342.000000</ele>
<time>2010-01-01T02:40:08.000Z</time>
</trkpt>
<trkpt lat="31.7896200" lon="34.9995200">
<ele>339.000000</ele>
<time>2010-01-01T02:40:17.000Z</time>
</trkpt>
<trkpt lat="31.7894700" lon="34.9997300">
<ele>332.000000</ele>
<time>2010-01-01T02:40:26.000Z</time>
</trkpt>
<trkpt lat="31.7892900" lon="35.0000500">
<ele>321.000031</ele>
<time>2010-01-01T02:40:39.000Z</time>
</trkpt>
<trkpt lat="31.7891300" lon="35.0001000">
<ele>319.000000</ele>
<time>2010-01-01T02:40:46.000Z</time>
</trkpt>
<trkpt lat="31.7890700" lon="35.0001200">
<ele>317.000000</ele>
<time>2010-01-01T02:40:48.000Z</time>
</trkpt>
<trkpt lat="31.7890600" lon="35.0002300">
<ele>314.000000</ele>
<time>2010-01-01T02:40:52.000Z</time>
</trkpt>
<trkpt lat="31.7892000" lon="35.0002900">
<ele>314.000000</ele>
<time>2010-01-01T02:40:58.000Z</time>
</trkpt>
<trkpt lat="31.7892900" lon="35.0004500">
<ele>311.000000</ele>
<time>2010-01-01T02:41:04.000Z</time>
</trkpt>
<trkpt lat="31.7893600" lon="35.0007300">
<ele>310.000000</ele>
<time>2010-01-01T02:41:14.000Z</time>
</trkpt>
<trkpt lat="31.7893400" lon="35.0009100">
<ele>310.000000</ele>
<time>2010-01-01T02:41:20.000Z</time>
</trkpt>
<trkpt lat="31.7891400" lon="35.0011300">
<ele>309.000000</ele>
<time>2010-01-01T02:41:31.000Z</time>
</trkpt>
<trkpt lat="31.7888800" lon="35.0012400">
<ele>307.000000</ele>
<time>2010-01-01T02:41:42.000Z</time>
</trkpt>
<trkpt lat="31.7885900" lon="35.0016800">
<ele>308.000000</ele>
<time>2010-01-01T02:42:01.000Z</time>
</trkpt>
<trkpt lat="31.7884000" lon="35.0022700">
<ele>309.000000</ele>
<time>2010-01-01T02:42:23.000Z</time>
</trkpt>
<trkpt lat="31.7881600" lon="35.0025800">
<ele>309.000000</ele>
<time>2010-01-01T02:42:37.000Z</time>
</trkpt>
<trkpt lat="31.7879700" lon="35.0025800">
<ele>307.000000</ele>
<time>2010-01-01T02:42:45.000Z</time>
</trkpt>
<trkpt lat="31.7878400" lon="35.0023000">
<ele>302.000000</ele>
<time>2010-01-01T02:42:56.000Z</time>
</trkpt>
<trkpt lat="31.7876800" lon="35.0020100">
<ele>298.000000</ele>
<time>2010-01-01T02:43:07.000Z</time>
</trkpt>
<trkpt lat="31.7873600" lon="35.0020000">
<ele>299.000000</ele>
<time>2010-01-01T02:43:20.000Z</time>
</trkpt>
<trkpt lat="31.7872000" lon="35.0020600">
<ele>299.000000</ele>
<time>2010-01-01T02:43:27.000Z</time>
</trkpt>
<trkpt lat="31.7871900" lon="35.0020900">
<ele>299.000000</ele>
<time>2010-01-01T02:43:28.000Z</time>
</trkpt>
<trkpt lat="31.7872000" lon="35.0020600">
<ele>299.000000</ele>
<time>2010-01-01T02:43:29.000Z</time>
</trkpt>
<trkpt lat="31.7870900" lon="35.0021100">
<ele>299.000000</ele>
<time>2010-01-01T02:43:34.000Z</time>
</trkpt>
<trkpt lat="31.7868100" lon="35.0024500">
<ele>301.000000</ele>
<time>2010-01-01T02:43:50.000Z</time>
</trkpt>
<trkpt lat="31.7865700" lon="35.0026400">
<ele>302.000000</ele>
<time>2010-01-01T02:44:01.000Z</time>
</trkpt>
<trkpt lat="31.7862700" lon="35.0025600">
<ele>300.000000</ele>
<time>2010-01-01T02:44:14.000Z</time>
</trkpt>
<trkpt lat="31.7860000" lon="35.0024000">
<ele>297.000000</ele>
<time>2010-01-01T02:44:26.000Z</time>
</trkpt>
<trkpt lat="31.7859200" lon="35.0021700">
<ele>293.000000</ele>
<time>2010-01-01T02:44:34.000Z</time>
</trkpt>
<trkpt lat="31.7860200" lon="35.0019600">
<ele>288.000000</ele>
<time>2010-01-01T02:44:43.000Z</time>
</trkpt>
<trkpt lat="31.7860000" lon="35.0017600">
<ele>286.000000</ele>
<time>2010-01-01T02:44:49.000Z</time>
</trkpt>
<trkpt lat="31.7858500" lon="35.0015700">
<ele>285.000000</ele>
<time>2010-01-01T02:44:58.000Z</time>
</trkpt>
<trkpt lat="31.7851800" lon="35.0017000">
<ele>281.000000</ele>
<time>2010-01-01T02:45:25.000Z</time>
</trkpt>
<trkpt lat="31.7847800" lon="35.0020000">
<ele>280.000000</ele>
<time>2010-01-01T02:45:44.000Z</time>
</trkpt>
<trkpt lat="31.7844300" lon="35.0021200">
<ele>278.000000</ele>
<time>2010-01-01T02:45:59.000Z</time>
</trkpt>
<trkpt lat="31.7841700" lon="35.0018600">
<ele>275.000000</ele>
<time>2010-01-01T02:46:13.000Z</time>
</trkpt>
<trkpt lat="31.7839200" lon="35.0017900">
<ele>274.000000</ele>
<time>2010-01-01T02:46:23.000Z</time>
</trkpt>
<trkpt lat="31.7831200" lon="35.0019300">
<ele>272.000000</ele>
<time>2010-01-01T02:46:55.000Z</time>
</trkpt>
<trkpt lat="31.7825400" lon="35.0019800">
<ele>271.000000</ele>
<time>2010-01-01T02:47:19.000Z</time>
</trkpt>
<trkpt lat="31.7819200" lon="35.0021700">
<ele>269.000000</ele>
<time>2010-01-01T02:47:44.000Z</time>
</trkpt>
<trkpt lat="31.7813900" lon="35.0023900">
<ele>263.000000</ele>
<time>2010-01-01T02:48:07.000Z</time>
</trkpt>
</trkseg>
</trk>
</gpx>
